FLIGHT DETAILS
Pilot: MTS135 Yago J. G. Aircraft: JF_PA28_ARROW_III_V1.21 DERIN Distance: 54NM
Departure LECU Arrival LECU Duration 00:34
Validation Validated Type Charter Tail Number EC-MOV
ZFW 885 Block Fuel/Initial FOB 28/0 Flight Fuel 2
Passengers 2 Cargo 200 Alternate LEMT
Departure Time Cruise Speed Flight Level
Flight Type IFR Aircraft Type P28R Weight Unit Kg
Date 29-11-2017 Pilot Comments Network IVAO
Crashed No Validator Comments Flight Rating 80

 ROUTE
ROUTE VFR
REMARKS
 FLIGHT FAILURES
Crashed OK Beacon off & Engine Running Fail KIAS Above 250 below 10000 FT OK
Lights OFF below 10000 FT Fail Lights ON above 10000 FT OK Stall OK
Overspeed OK Flight paused Fail Refueling Fail
Slew detected OK Taxi & Taxi lights off Fail Take off & lights off OK
Landing & lights off OK Landed in not planned airport OK Taxi Speed OK
Wrong altimeter in Take off OK Wrong altimeter in Landing OK
 LANDING ANALYSIS
Landing wind 352º/6 kt Landing heading 177
Landing VS: -379.86 ft/min Landing IAS: 74.57 kt
Landing Force G 1.4 G Landing Bank 1.2
Landing Pitch 3 Landing Flaps 10
Navigation Lights ON Landing Lights ON
Beacon Lights ON Strobe Lights ON
 FLIGHT MAP
 ALTITUDE CHART
 FLIGHT FINANCIAL REPORT
 MAIN EVENTS
DATE EVENTIASALTITUDE
2017-11-29 18:09:02 SIM ACARS version 1.4.102241
2017-11-29 18:09:02 BOARDING02241
2017-11-29 18:11:24 STARTING ENGINE 1 02241
2017-11-29 18:11:29 STOPPING ENGINE 1 02241
2017-11-29 18:11:42 REFUELING -5,33%02241
2017-11-29 18:12:10 AIRCRAFT CHANGED TO JF_PA28_Arrow_III_v1.21 GJCB02241
2017-11-29 18:12:19 AIRCRAFT CHANGED TO JF_PA28_Arrow_III_v1.21 DERIN02241
2017-11-29 18:30:22 REFUELING 1,61%02241
2017-11-29 18:31:33 FLAPS EXTENSION 33 % 02241
2017-11-29 18:31:33 FLAPS EXTENSION 67 % 02241
2017-11-29 18:31:35 FLAPS EXTENSION 100 % 02241
2017-11-29 18:31:54 FLAPS EXTENSION 76 % 02241
2017-11-29 18:31:54 FLAPS EXTENSION 75 % 02241
2017-11-29 18:31:55 FLAPS EXTENSION 70 % 02241
2017-11-29 18:31:55 FLAPS EXTENSION 64 % 02241
2017-11-29 18:31:55 FLAPS EXTENSION 63 % 02241
2017-11-29 18:31:55 FLAPS EXTENSION 60 % 02241
2017-11-29 18:31:55 FLAPS EXTENSION 58 % 02241
2017-11-29 18:31:55 FLAPS EXTENSION 56 % 02241
2017-11-29 18:31:55 FLAPS EXTENSION 48 % 02241
2017-11-29 18:31:56 FLAPS EXTENSION 47 % 02241
2017-11-29 18:31:56 FLAPS EXTENSION 40 % 02241
2017-11-29 18:31:56 FLAPS EXTENSION 39 % 02241
2017-11-29 18:31:56 FLAPS EXTENSION 38 % 02241
2017-11-29 18:31:56 FLAPS EXTENSION 33 % 02241
2017-11-29 18:31:57 FLAPS EXTENSION 35 % 02241
2017-11-29 18:31:57 FLAPS EXTENSION 27 % 02241
2017-11-29 18:31:57 FLAPS EXTENSION 29 % 02241
2017-11-29 18:31:57 FLAPS EXTENSION 34 % 02241
2017-11-29 18:31:57 FLAPS EXTENSION 35 % 02241
2017-11-29 18:31:57 FLAPS EXTENSION 36 % 02241
2017-11-29 18:31:57 FLAPS EXTENSION 33 % 02241
2017-11-29 18:31:58 FLAPS EXTENSION 29 % 02241
2017-11-29 18:31:58 FLAPS EXTENSION 24 % 02241
2017-11-29 18:31:58 FLAPS EXTENSION 18 % 02241
2017-11-29 18:31:58 FLAPS EXTENSION 17 % 02241
2017-11-29 18:31:58 FLAPS EXTENSION 17 % 02241
2017-11-29 18:32:28 FLAPS EXTENSION 12 % 02241
2017-11-29 18:32:28 FLAPS EXTENSION 1 % 02241
2017-11-29 18:32:28 FLAPS EXTENSION 0 % 02241
2017-11-29 18:32:31 FLAPS EXTENSION 8 % 02241
2017-11-29 18:32:31 FLAPS EXTENSION 35 % 02241
2017-11-29 18:32:31 FLAPS EXTENSION 46 % 02241
2017-11-29 18:32:31 FLAPS EXTENSION 61 % 02241
2017-11-29 18:32:31 FLAPS EXTENSION 91 % 02241
2017-11-29 18:32:31 FLAPS EXTENSION 100 % 02241
2017-11-29 18:32:42 FLAPS EXTENSION 67 % 02241
2017-11-29 18:32:42 FLAPS EXTENSION 33 % 02241
2017-11-29 18:32:43 FLAPS EXTENSION 0 % 02241
2017-11-29 18:32:43 FLAPS EXTENSION 33 % 02241
2017-11-29 18:32:43 FLAPS EXTENSION 67 % 02241
2017-11-29 18:32:44 FLAPS EXTENSION 100 % 02241
2017-11-29 18:32:44 FLAPS EXTENSION 67 % 02241
2017-11-29 18:32:45 FLAPS EXTENSION 100 % 02241
2017-11-29 18:32:45 FLAPS EXTENSION 67 % 02241
2017-11-29 18:32:45 FLAPS EXTENSION 33 % 02241
2017-11-29 18:32:45 FLAPS EXTENSION 67 % 02241
2017-11-29 18:33:03 FLAPS EXTENSION 33 % 02241
2017-11-29 18:33:04 FLAPS EXTENSION 0 % 02241
2017-11-29 18:33:06 FLAPS EXTENSION 33 % 02241
2017-11-29 18:33:07 FLAPS EXTENSION 67 % 02241
2017-11-29 18:33:08 FLAPS EXTENSION 100 % 02241
2017-11-29 18:33:09 FLAPS EXTENSION 67 % 02241
2017-11-29 18:33:10 FLAPS EXTENSION 33 % 02241
2017-11-29 18:33:10 FLAPS EXTENSION 0 % 02241
2017-11-29 18:33:15 FLAPS EXTENSION 33 % 02241
2017-11-29 18:33:16 FLAPS EXTENSION 67 % 02241
2017-11-29 18:33:16 FLAPS EXTENSION 100 % 02241
2017-11-29 18:38:39 FLAPS EXTENSION 67 % 02241
2017-11-29 18:38:40 FLAPS EXTENSION 33 % 02241
2017-11-29 18:38:40 FLAPS EXTENSION 0 % 02241
2017-11-29 18:41:46 STARTING ENGINE 1 02241
2017-11-29 18:41:47 STOPPING ENGINE 1 02241
2017-11-29 18:41:50 STARTING ENGINE 1 02241
2017-11-29 18:50:33 STOPPING ENGINE 1 02241
2017-11-29 18:50:33 STARTING ENGINE 1 02241
2017-11-29 18:50:34 STOPPING ENGINE 1 02241
2017-11-29 18:50:35 STARTING ENGINE 1 02241
2017-11-29 18:50:36 STOPPING ENGINE 1 02241
2017-11-29 18:50:36 STARTING ENGINE 1 02241
2017-11-29 18:50:39 STOPPING ENGINE 1 02241
2017-11-29 18:50:39 STARTING ENGINE 1 02241
2017-11-29 18:50:40 STOPPING ENGINE 1 02241
2017-11-29 18:50:41 STARTING ENGINE 1 02241
2017-11-29 18:50:42 STOPPING ENGINE 1 02241
2017-11-29 18:50:42 STARTING ENGINE 1 02241
2017-11-29 18:50:44 STOPPING ENGINE 1 02241
2017-11-29 18:50:44 STARTING ENGINE 1 02241
2017-11-29 18:50:45 STOPPING ENGINE 1 02241
2017-11-29 18:50:45 STARTING ENGINE 1 02241
2017-11-29 18:50:47 STOPPING ENGINE 1 02241
2017-11-29 18:50:47 STARTING ENGINE 1 02241
2017-11-29 18:50:48 STOPPING ENGINE 1 02241
2017-11-29 18:50:48 STARTING ENGINE 1 02241
2017-11-29 18:50:51 STOPPING ENGINE 1 02241
2017-11-29 18:50:51 STARTING ENGINE 1 02241
2017-11-29 18:50:53 STOPPING ENGINE 1 02241
2017-11-29 18:50:53 STARTING ENGINE 1 02241
2017-11-29 18:50:54 STOPPING ENGINE 1 02241
2017-11-29 18:50:54 STARTING ENGINE 1 02241
2017-11-29 18:50:56 STOPPING ENGINE 1 02241
2017-11-29 18:50:56 STARTING ENGINE 1 02241
2017-11-29 18:50:57 STOPPING ENGINE 1 02241
2017-11-29 18:50:57 STARTING ENGINE 1 02241
2017-11-29 18:50:59 STOPPING ENGINE 1 02241
2017-11-29 18:50:59 STARTING ENGINE 1 02241
2017-11-29 18:51:00 STOPPING ENGINE 1 02241
2017-11-29 18:51:00 STARTING ENGINE 1 02241
2017-11-29 18:51:03 STOPPING ENGINE 1 02241
2017-11-29 18:51:03 STARTING ENGINE 1 02241
2017-11-29 18:51:05 STOPPING ENGINE 1 02241
2017-11-29 18:51:05 STARTING ENGINE 1 02241
2017-11-29 18:51:06 STOPPING ENGINE 1 02241
2017-11-29 18:51:06 STARTING ENGINE 1 02241
2017-11-29 18:51:08 STOPPING ENGINE 1 02241
2017-11-29 18:51:08 STARTING ENGINE 1 02241
2017-11-29 18:51:09 STOPPING ENGINE 1 02241
2017-11-29 18:51:09 STARTING ENGINE 1 02241
2017-11-29 18:51:11 STOPPING ENGINE 1 02241
2017-11-29 18:51:11 STARTING ENGINE 1 02241
2017-11-29 18:51:12 STOPPING ENGINE 1 02241
2017-11-29 18:51:12 STARTING ENGINE 1 02241
2017-11-29 18:51:14 STOPPING ENGINE 1 02241
2017-11-29 18:51:14 STARTING ENGINE 1 02241
2017-11-29 18:51:15 STOPPING ENGINE 1 02241
2017-11-29 18:51:16 STARTING ENGINE 1 02241
2017-11-29 18:51:18 STOPPING ENGINE 1 02241
2017-11-29 18:51:19 STARTING ENGINE 1 02241
2017-11-29 18:51:20 STOPPING ENGINE 1 02241
2017-11-29 18:51:20 STARTING ENGINE 1 02241
2017-11-29 18:51:21 STOPPING ENGINE 1 02241
2017-11-29 18:51:22 STARTING ENGINE 1 02241
2017-11-29 18:51:23 STOPPING ENGINE 1 02241
2017-11-29 18:51:23 STARTING ENGINE 1 02241
2017-11-29 18:51:25 STOPPING ENGINE 1 02241
2017-11-29 18:51:25 STARTING ENGINE 1 02241
2017-11-29 18:51:26 STOPPING ENGINE 1 02241
2017-11-29 18:51:26 STARTING ENGINE 1 02241
2017-11-29 18:51:28 STOPPING ENGINE 1 02241
2017-11-29 18:51:28 STARTING ENGINE 1 02241
2017-11-29 18:51:31 STOPPING ENGINE 1 02241
2017-11-29 18:51:31 STARTING ENGINE 1 02241
2017-11-29 18:51:32 STOPPING ENGINE 1 02241
2017-11-29 18:51:32 STARTING ENGINE 1 02241
2017-11-29 18:51:34 STOPPING ENGINE 1 02241
2017-11-29 18:51:34 STARTING ENGINE 1 02241
2017-11-29 18:51:35 STOPPING ENGINE 1 02241
2017-11-29 18:51:35 STARTING ENGINE 1 02241
2017-11-29 18:51:37 STOPPING ENGINE 1 02241
2017-11-29 18:51:37 STARTING ENGINE 1 02241
2017-11-29 18:51:38 STOPPING ENGINE 1 02241
2017-11-29 18:51:38 STARTING ENGINE 1 02241
2017-11-29 18:51:40 STOPPING ENGINE 1 02241
2017-11-29 18:51:40 STARTING ENGINE 1 02241
2017-11-29 18:51:41 STOPPING ENGINE 1 02241
2017-11-29 18:51:41 STARTING ENGINE 1 02241
2017-11-29 18:51:43 STOPPING ENGINE 1 02241
2017-11-29 18:51:43 STARTING ENGINE 1 02241
2017-11-29 18:51:44 STOPPING ENGINE 1 02241
2017-11-29 18:51:44 STARTING ENGINE 1 02241
2017-11-29 18:51:46 STOPPING ENGINE 1 02241
2017-11-29 18:51:46 STARTING ENGINE 1 02241
2017-11-29 18:51:47 STOPPING ENGINE 1 02241
2017-11-29 18:51:47 STARTING ENGINE 1 02241
2017-11-29 18:51:49 STOPPING ENGINE 1 02241
2017-11-29 18:51:49 STARTING ENGINE 1 02241
2017-11-29 18:51:50 STOPPING ENGINE 1 02241
2017-11-29 18:51:50 STARTING ENGINE 1 02241
2017-11-29 18:51:52 STOPPING ENGINE 1 02241
2017-11-29 18:51:52 STARTING ENGINE 1 02241
2017-11-29 18:51:53 STOPPING ENGINE 1 02241
2017-11-29 18:51:54 STARTING ENGINE 1 02241
2017-11-29 18:51:55 STOPPING ENGINE 1 02241
2017-11-29 18:51:55 STARTING ENGINE 1 02241
2017-11-29 18:51:56 STOPPING ENGINE 1 02241
2017-11-29 18:51:56 STARTING ENGINE 1 02241
2017-11-29 18:51:58 STOPPING ENGINE 1 02241
2017-11-29 18:51:58 STARTING ENGINE 1 02241
2017-11-29 18:51:59 STOPPING ENGINE 1 02241
2017-11-29 18:52:00 STARTING ENGINE 1 02241
2017-11-29 18:52:01 STOPPING ENGINE 1 02241
2017-11-29 18:52:01 STARTING ENGINE 1 02241
2017-11-29 18:52:02 STOPPING ENGINE 1 02241
2017-11-29 18:52:03 STARTING ENGINE 1 02241
2017-11-29 18:52:04 STOPPING ENGINE 1 02241
2017-11-29 18:52:04 STARTING ENGINE 1 02241
2017-11-29 18:52:06 STOPPING ENGINE 1 02241
2017-11-29 18:52:06 STARTING ENGINE 1 02241
2017-11-29 18:52:07 STOPPING ENGINE 1 02241
2017-11-29 18:52:07 STARTING ENGINE 1 02241
2017-11-29 18:52:08 STOPPING ENGINE 1 02241
2017-11-29 18:52:08 STARTING ENGINE 1 02241
2017-11-29 18:52:10 STOPPING ENGINE 1 02241
2017-11-29 18:52:10 STARTING ENGINE 1 02241
2017-11-29 18:52:10 STOPPING ENGINE 1 02241
2017-11-29 18:52:10 STARTING ENGINE 1 02241
2017-11-29 18:52:11 STOPPING ENGINE 1 02241
2017-11-29 18:52:11 STARTING ENGINE 1 02241
2017-11-29 18:52:12 STOPPING ENGINE 1 02241
2017-11-29 18:52:12 STARTING ENGINE 1 02241
2017-11-29 18:52:12 STOPPING ENGINE 1 02241
2017-11-29 18:52:13 STARTING ENGINE 1 02241
2017-11-29 18:52:13 STOPPING ENGINE 1 02241
2017-11-29 18:52:13 STARTING ENGINE 1 02241
2017-11-29 18:52:14 STOPPING ENGINE 1 02241
2017-11-29 18:52:14 STARTING ENGINE 1 02241
2017-11-29 18:52:15 STOPPING ENGINE 1 02241
2017-11-29 18:52:15 STARTING ENGINE 1 02241
2017-11-29 18:52:15 STOPPING ENGINE 1 02241
2017-11-29 18:52:15 STARTING ENGINE 1 02241
2017-11-29 18:52:16 STOPPING ENGINE 1 02241
2017-11-29 18:52:16 STARTING ENGINE 1 02241
2017-11-29 18:52:17 STOPPING ENGINE 1 02241
2017-11-29 18:52:17 STARTING ENGINE 1 02241
2017-11-29 18:52:17 STOPPING ENGINE 1 02241
2017-11-29 18:52:17 STARTING ENGINE 1 02241
2017-11-29 18:52:18 STOPPING ENGINE 1 02241
2017-11-29 18:52:18 STARTING ENGINE 1 02241
2017-11-29 18:52:19 STOPPING ENGINE 1 02241
2017-11-29 18:52:19 STARTING ENGINE 1 02241
2017-11-29 18:52:20 STOPPING ENGINE 1 02241
2017-11-29 18:52:20 STARTING ENGINE 1 02241
2017-11-29 18:52:20 STOPPING ENGINE 1 02241
2017-11-29 18:52:20 STARTING ENGINE 1 02241
2017-11-29 18:52:21 STOPPING ENGINE 1 02241
2017-11-29 18:52:21 STARTING ENGINE 1 02241
2017-11-29 18:52:22 STOPPING ENGINE 1 02241
2017-11-29 18:52:22 STARTING ENGINE 1 02241
2017-11-29 18:52:22 STOPPING ENGINE 1 02241
2017-11-29 18:52:23 STARTING ENGINE 1 02241
2017-11-29 18:52:23 STOPPING ENGINE 1 02241
2017-11-29 18:52:23 STARTING ENGINE 1 02241
2017-11-29 18:52:24 STOPPING ENGINE 1 02241
2017-11-29 18:52:24 STARTING ENGINE 1 02241
2017-11-29 18:52:24 STOPPING ENGINE 1 02241
2017-11-29 18:52:25 STARTING ENGINE 1 02241
2017-11-29 18:52:26 STOPPING ENGINE 1 02241
2017-11-29 18:52:26 STARTING ENGINE 1 02241
2017-11-29 18:52:27 STOPPING ENGINE 1 02241
2017-11-29 18:52:27 STARTING ENGINE 1 02241
2017-11-29 18:52:29 STOPPING ENGINE 1 02241
2017-11-29 18:52:29 STARTING ENGINE 1 02241
2017-11-29 18:52:29 STOPPING ENGINE 1 02241
2017-11-29 18:52:29 STARTING ENGINE 1 02241
2017-11-29 18:52:30 STOPPING ENGINE 1 02241
2017-11-29 18:52:30 STARTING ENGINE 1 02241
2017-11-29 18:52:31 STOPPING ENGINE 1 02241
2017-11-29 18:52:31 STARTING ENGINE 1 02241
2017-11-29 18:52:32 STOPPING ENGINE 1 02241
2017-11-29 18:52:32 STARTING ENGINE 1 02241
2017-11-29 18:52:32 STOPPING ENGINE 1 02241
2017-11-29 18:52:32 STARTING ENGINE 1 02241
2017-11-29 18:52:33 STOPPING ENGINE 1 02241
2017-11-29 18:52:33 STARTING ENGINE 1 02241
2017-11-29 18:52:34 STOPPING ENGINE 1 02241
2017-11-29 18:52:34 STARTING ENGINE 1 02241
2017-11-29 18:52:34 STOPPING ENGINE 1 02241
2017-11-29 18:52:35 STARTING ENGINE 1 02241
2017-11-29 18:52:35 STOPPING ENGINE 1 02241
2017-11-29 18:52:35 STARTING ENGINE 1 02241
2017-11-29 18:52:36 STOPPING ENGINE 1 02241
2017-11-29 18:52:36 STARTING ENGINE 1 02241
2017-11-29 18:52:36 STOPPING ENGINE 1 02241
2017-11-29 18:52:37 STARTING ENGINE 1 02241
2017-11-29 18:52:37 STOPPING ENGINE 1 02241
2017-11-29 18:52:37 STARTING ENGINE 1 02241
2017-11-29 18:52:38 STOPPING ENGINE 1 02241
2017-11-29 18:52:38 STARTING ENGINE 1 02241
2017-11-29 18:52:39 STOPPING ENGINE 1 02241
2017-11-29 18:52:39 STARTING ENGINE 1 02241
2017-11-29 18:52:39 STOPPING ENGINE 1 02241
2017-11-29 18:52:39 STARTING ENGINE 1 02241
2017-11-29 18:52:40 STOPPING ENGINE 1 02241
2017-11-29 18:52:40 STARTING ENGINE 1 02241
2017-11-29 18:52:41 STOPPING ENGINE 1 02241
2017-11-29 18:52:41 STARTING ENGINE 1 02241
2017-11-29 18:52:42 STOPPING ENGINE 1 02241
2017-11-29 18:52:42 STARTING ENGINE 1 02241
2017-11-29 18:52:42 STOPPING ENGINE 1 02241
2017-11-29 18:52:42 STARTING ENGINE 1 02241
2017-11-29 18:52:43 STOPPING ENGINE 1 02241
2017-11-29 18:52:43 STARTING ENGINE 1 02241
2017-11-29 18:52:44 STOPPING ENGINE 1 02241
2017-11-29 18:52:44 STARTING ENGINE 1 02241
2017-11-29 18:52:44 STOPPING ENGINE 1 02241
2017-11-29 18:52:44 STARTING ENGINE 1 02241
2017-11-29 18:52:45 STOPPING ENGINE 1 02241
2017-11-29 18:52:45 STARTING ENGINE 1 02241
2017-11-29 18:52:46 STOPPING ENGINE 1 02241
2017-11-29 18:52:47 STARTING ENGINE 1 02241
2017-11-29 18:52:47 STOPPING ENGINE 1 02241
2017-11-29 18:52:47 STARTING ENGINE 1 02241
2017-11-29 18:52:48 STOPPING ENGINE 1 02241
2017-11-29 18:52:48 STARTING ENGINE 1 02241
2017-11-29 18:52:49 STOPPING ENGINE 1 02241
2017-11-29 18:52:49 STARTING ENGINE 1 02241
2017-11-29 18:52:49 STOPPING ENGINE 1 02241
2017-11-29 18:52:49 STARTING ENGINE 1 02241
2017-11-29 18:52:50 STOPPING ENGINE 1 02241
2017-11-29 18:52:50 STARTING ENGINE 1 02241
2017-11-29 18:52:51 STOPPING ENGINE 1 02241
2017-11-29 18:52:51 STARTING ENGINE 1 02241
2017-11-29 18:52:51 STOPPING ENGINE 1 02241
2017-11-29 18:52:51 STARTING ENGINE 1 02241
2017-11-29 18:52:52 STOPPING ENGINE 1 02241
2017-11-29 18:52:52 STARTING ENGINE 1 02241
2017-11-29 18:52:53 STOPPING ENGINE 1 02241
2017-11-29 18:52:53 STARTING ENGINE 1 02241
2017-11-29 18:52:54 STOPPING ENGINE 1 02241
2017-11-29 18:52:54 STARTING ENGINE 1 02241
2017-11-29 18:52:54 STOPPING ENGINE 1 02241
2017-11-29 18:52:54 STARTING ENGINE 1 02241
2017-11-29 18:52:55 STOPPING ENGINE 1 02241
2017-11-29 18:52:55 STARTING ENGINE 1 02241
2017-11-29 18:52:56 STOPPING ENGINE 1 02241
2017-11-29 18:52:56 STARTING ENGINE 1 02241
2017-11-29 18:52:56 STOPPING ENGINE 1 02241
2017-11-29 18:52:57 STARTING ENGINE 1 02241
2017-11-29 18:52:57 STOPPING ENGINE 1 02241
2017-11-29 18:52:57 STARTING ENGINE 1 02241
2017-11-29 18:52:58 STOPPING ENGINE 1 02241
2017-11-29 18:52:58 STARTING ENGINE 1 02241
2017-11-29 18:52:58 STOPPING ENGINE 1 02241
2017-11-29 18:52:59 STARTING ENGINE 1 02241
2017-11-29 18:52:59 STOPPING ENGINE 1 02241
2017-11-29 18:52:59 STARTING ENGINE 1 02241
2017-11-29 18:53:00 STOPPING ENGINE 1 02241
2017-11-29 18:53:00 STARTING ENGINE 1 02241
2017-11-29 18:53:01 STOPPING ENGINE 1 02241
2017-11-29 18:53:01 STARTING ENGINE 1 02241
2017-11-29 18:53:01 STOPPING ENGINE 1 02241
2017-11-29 18:53:01 STARTING ENGINE 1 02241
2017-11-29 18:53:02 STOPPING ENGINE 1 02241
2017-11-29 18:53:02 STARTING ENGINE 1 02241
2017-11-29 18:53:03 STOPPING ENGINE 1 02241
2017-11-29 18:53:03 STARTING ENGINE 1 02241
2017-11-29 18:53:04 STOPPING ENGINE 1 02241
2017-11-29 18:53:04 STARTING ENGINE 1 02241
2017-11-29 18:53:06 STOPPING ENGINE 1 02241
2017-11-29 18:53:06 STARTING ENGINE 1 02241
2017-11-29 18:53:06 STOPPING ENGINE 1 02241
2017-11-29 18:53:06 STARTING ENGINE 1 02241
2017-11-29 18:53:07 STOPPING ENGINE 1 02241
2017-11-29 18:53:07 STARTING ENGINE 1 02241
2017-11-29 18:53:08 STOPPING ENGINE 1 02241
2017-11-29 18:53:08 STARTING ENGINE 1 02241
2017-11-29 18:53:08 STOPPING ENGINE 1 02241
2017-11-29 18:53:09 STARTING ENGINE 1 02241
2017-11-29 18:53:09 STOPPING ENGINE 1 02241
2017-11-29 18:53:09 STARTING ENGINE 1 02241
2017-11-29 18:53:10 STOPPING ENGINE 1 02241
2017-11-29 18:53:10 STARTING ENGINE 1 02241
2017-11-29 18:53:11 STOPPING ENGINE 1 02241
2017-11-29 18:53:11 STARTING ENGINE 1 02241
2017-11-29 18:53:11 STOPPING ENGINE 1 02241
2017-11-29 18:53:11 STARTING ENGINE 1 02241
2017-11-29 18:53:12 STOPPING ENGINE 1 02241
2017-11-29 18:53:12 STARTING ENGINE 1 02241
2017-11-29 18:53:13 STOPPING ENGINE 1 02241
2017-11-29 18:53:13 STARTING ENGINE 1 02241
2017-11-29 18:53:13 STOPPING ENGINE 1 02241
2017-11-29 18:53:13 STARTING ENGINE 1 02241
2017-11-29 18:53:14 STOPPING ENGINE 1 02241
2017-11-29 18:53:14 STARTING ENGINE 1 02241
2017-11-29 18:53:15 STOPPING ENGINE 1 02241
2017-11-29 18:53:15 STARTING ENGINE 1 02241
2017-11-29 18:53:15 STOPPING ENGINE 1 02241
2017-11-29 18:53:16 STARTING ENGINE 1 02241
2017-11-29 18:53:16 STOPPING ENGINE 1 02241
2017-11-29 18:53:16 STARTING ENGINE 1 02241
2017-11-29 18:53:17 STOPPING ENGINE 1 02241
2017-11-29 18:53:17 STARTING ENGINE 1 02241
2017-11-29 18:53:18 STOPPING ENGINE 1 02241
2017-11-29 18:53:19 STARTING ENGINE 1 02241
2017-11-29 18:53:19 STOPPING ENGINE 1 02241
2017-11-29 18:53:19 STARTING ENGINE 1 02241
2017-11-29 18:53:20 STOPPING ENGINE 1 02241
2017-11-29 18:53:20 STARTING ENGINE 1 02241
2017-11-29 18:53:20 STOPPING ENGINE 1 02241
2017-11-29 18:53:20 STARTING ENGINE 1 02241
2017-11-29 18:53:21 STOPPING ENGINE 1 02241
2017-11-29 18:53:21 STARTING ENGINE 1 02241
2017-11-29 18:53:22 STOPPING ENGINE 1 02241
2017-11-29 18:53:22 STARTING ENGINE 1 02241
2017-11-29 18:53:23 STOPPING ENGINE 1 02241
2017-11-29 18:53:23 STARTING ENGINE 1 02241
2017-11-29 18:53:23 STOPPING ENGINE 1 02241
2017-11-29 18:53:23 STARTING ENGINE 1 02241
2017-11-29 18:53:25 STOPPING ENGINE 1 02241
2017-11-29 18:53:25 STARTING ENGINE 1 02241
2017-11-29 18:53:25 STOPPING ENGINE 1 02241
2017-11-29 18:53:25 STARTING ENGINE 1 02241
2017-11-29 18:53:26 STOPPING ENGINE 1 02241
2017-11-29 18:53:26 STARTING ENGINE 1 02241
2017-11-29 18:53:27 STOPPING ENGINE 1 02241
2017-11-29 18:53:27 STARTING ENGINE 1 02241
2017-11-29 18:53:28 STOPPING ENGINE 1 02241
2017-11-29 18:53:28 STARTING ENGINE 1 02241
2017-11-29 18:53:28 STOPPING ENGINE 1 02241
2017-11-29 18:53:28 STARTING ENGINE 1 02241
2017-11-29 18:53:29 STOPPING ENGINE 1 02241
2017-11-29 18:53:29 STARTING ENGINE 1 02241
2017-11-29 18:53:30 STOPPING ENGINE 1 02241
2017-11-29 18:53:30 STARTING ENGINE 1 02241
2017-11-29 18:53:31 STOPPING ENGINE 1 02241
2017-11-29 18:53:31 STARTING ENGINE 1 02241
2017-11-29 18:53:32 STOPPING ENGINE 1 02241
2017-11-29 18:53:32 STARTING ENGINE 1 02241
2017-11-29 18:53:33 STOPPING ENGINE 1 02241
2017-11-29 18:53:33 STARTING ENGINE 1 02241
2017-11-29 18:53:33 STOPPING ENGINE 1 02241
2017-11-29 18:53:33 STARTING ENGINE 1 02241
2017-11-29 18:53:34 STOPPING ENGINE 1 02241
2017-11-29 18:53:34 STARTING ENGINE 1 02241
2017-11-29 18:53:35 STOPPING ENGINE 1 02241
2017-11-29 18:53:35 STARTING ENGINE 1 02241
2017-11-29 18:53:35 STOPPING ENGINE 1 02241
2017-11-29 18:53:35 STARTING ENGINE 1 02241
2017-11-29 18:53:36 STOPPING ENGINE 1 02241
2017-11-29 18:53:36 STARTING ENGINE 1 02241
2017-11-29 18:53:37 STOPPING ENGINE 1 02241
2017-11-29 18:53:38 STARTING ENGINE 1 02241
2017-11-29 18:53:38 STOPPING ENGINE 1 02241
2017-11-29 18:53:38 STARTING ENGINE 1 02241
2017-11-29 18:53:40 STOPPING ENGINE 1 02241
2017-11-29 18:53:40 STARTING ENGINE 1 02241
2017-11-29 18:53:40 STOPPING ENGINE 1 02241
2017-11-29 18:53:40 STARTING ENGINE 1 02241
2017-11-29 18:53:41 STOPPING ENGINE 1 02241
2017-11-29 18:53:41 STARTING ENGINE 1 02241
2017-11-29 18:53:42 STOPPING ENGINE 1 02241
2017-11-29 18:53:42 STARTING ENGINE 1 02241
2017-11-29 18:53:43 STOPPING ENGINE 1 02241
2017-11-29 18:53:43 STARTING ENGINE 1 02241
2017-11-29 18:53:44 STOPPING ENGINE 1 02241
2017-11-29 18:53:44 STARTING ENGINE 1 02241
2017-11-29 18:53:45 STOPPING ENGINE 1 02241
2017-11-29 18:53:45 STARTING ENGINE 1 02241
2017-11-29 18:53:46 STOPPING ENGINE 1 02241
2017-11-29 18:53:47 STARTING ENGINE 1 02241
2017-11-29 18:53:49 STOPPING ENGINE 1 02241
2017-11-29 18:53:49 STARTING ENGINE 1 02241
2017-11-29 18:53:50 STOPPING ENGINE 1 02241
2017-11-29 18:53:50 STARTING ENGINE 1 02241
2017-11-29 18:53:53 STOPPING ENGINE 1 02241
2017-11-29 18:53:53 STARTING ENGINE 1 02241
2017-11-29 18:53:54 STOPPING ENGINE 1 02241
2017-11-29 18:53:54 STARTING ENGINE 1 02241
2017-11-29 18:53:55 STOPPING ENGINE 1 02241
2017-11-29 18:53:55 STARTING ENGINE 1 02241
2017-11-29 18:53:57 STOPPING ENGINE 1 02241
2017-11-29 18:53:57 STARTING ENGINE 1 02241
2017-11-29 18:53:58 STOPPING ENGINE 1 02241
2017-11-29 18:53:58 STARTING ENGINE 1 02241
2017-11-29 18:53:59 STOPPING ENGINE 1 02241
2017-11-29 18:53:59 STARTING ENGINE 1 02241
2017-11-29 18:54:00 STOPPING ENGINE 1 02241
2017-11-29 18:54:00 STARTING ENGINE 1 02241
2017-11-29 18:54:02 STOPPING ENGINE 1 02241
2017-11-29 18:54:02 STARTING ENGINE 1 02241
2017-11-29 18:54:03 STOPPING ENGINE 1 02241
2017-11-29 18:54:03 STARTING ENGINE 1 02241
2017-11-29 18:54:04 STOPPING ENGINE 1 02241
2017-11-29 18:54:04 STARTING ENGINE 1 02241
2017-11-29 18:54:05 STOPPING ENGINE 1 02241
2017-11-29 18:54:06 STARTING ENGINE 1 02241
2017-11-29 18:54:07 STOPPING ENGINE 1 02241
2017-11-29 18:54:07 STARTING ENGINE 1 02241
2017-11-29 18:54:08 STOPPING ENGINE 1 02241
2017-11-29 18:54:08 STARTING ENGINE 1 02241
2017-11-29 18:54:09 STOPPING ENGINE 1 02241
2017-11-29 18:54:09 STARTING ENGINE 1 02241
2017-11-29 18:54:10 STOPPING ENGINE 1 02241
2017-11-29 18:54:10 STARTING ENGINE 1 02241
2017-11-29 18:54:12 STOPPING ENGINE 1 02241
2017-11-29 18:54:12 STARTING ENGINE 1 02241
2017-11-29 18:54:13 STOPPING ENGINE 1 02241
2017-11-29 18:54:13 STARTING ENGINE 1 02241
2017-11-29 18:54:14 STOPPING ENGINE 1 02241
2017-11-29 18:54:14 STARTING ENGINE 1 02241
2017-11-29 18:54:15 STOPPING ENGINE 1 02241
2017-11-29 18:54:15 STARTING ENGINE 1 02241
2017-11-29 18:54:18 STOPPING ENGINE 1 02241
2017-11-29 18:54:18 STARTING ENGINE 1 02241
2017-11-29 18:54:19 STOPPING ENGINE 1 02241
2017-11-29 18:54:19 STARTING ENGINE 1 02241
2017-11-29 18:54:21 STOPPING ENGINE 1 02241
2017-11-29 18:54:21 STARTING ENGINE 1 02241
2017-11-29 18:54:22 STOPPING ENGINE 1 02241
2017-11-29 18:54:22 STARTING ENGINE 1 02241
2017-11-29 18:54:23 STOPPING ENGINE 1 02241
2017-11-29 18:54:23 STARTING ENGINE 1 02241
2017-11-29 18:54:25 STOPPING ENGINE 1 02241
2017-11-29 18:54:25 STARTING ENGINE 1 02241
2017-11-29 18:54:26 STOPPING ENGINE 1 02241
2017-11-29 18:54:26 STARTING ENGINE 1 02241
2017-11-29 18:54:27 STOPPING ENGINE 1 02241
2017-11-29 18:54:27 STARTING ENGINE 1 02241
2017-11-29 18:54:29 STOPPING ENGINE 1 02241
2017-11-29 18:54:29 STARTING ENGINE 1 02241
2017-11-29 18:54:30 STOPPING ENGINE 1 02241
2017-11-29 18:54:30 STARTING ENGINE 1 02241
2017-11-29 18:54:31 STOPPING ENGINE 1 02241
2017-11-29 18:54:31 STARTING ENGINE 1 02241
2017-11-29 18:54:32 STOPPING ENGINE 1 02241
2017-11-29 18:54:33 STARTING ENGINE 1 02241
2017-11-29 18:54:34 STOPPING ENGINE 1 02241
2017-11-29 18:54:34 STARTING ENGINE 1 02241
2017-11-29 18:54:35 STOPPING ENGINE 1 02241
2017-11-29 18:54:35 STARTING ENGINE 1 02241
2017-11-29 18:54:36 STOPPING ENGINE 1 02241
2017-11-29 18:54:36 STARTING ENGINE 1 02241
2017-11-29 18:54:38 STOPPING ENGINE 1 02241
2017-11-29 18:54:38 STARTING ENGINE 1 02241
2017-11-29 18:54:39 STOPPING ENGINE 1 02241
2017-11-29 18:54:39 STARTING ENGINE 1 02241
2017-11-29 18:54:41 STOPPING ENGINE 1 02241
2017-11-29 18:54:41 STARTING ENGINE 1 02241
2017-11-29 18:54:42 STOPPING ENGINE 1 02241
2017-11-29 18:54:42 STARTING ENGINE 1 02241
2017-11-29 18:54:43 STOPPING ENGINE 1 02241
2017-11-29 18:54:43 STARTING ENGINE 1 02241
2017-11-29 18:54:45 STOPPING ENGINE 1 02241
2017-11-29 18:54:45 STARTING ENGINE 1 02241
2017-11-29 18:54:46 STOPPING ENGINE 1 02241
2017-11-29 18:54:46 STARTING ENGINE 1 02241
2017-11-29 18:54:47 STOPPING ENGINE 1 02241
2017-11-29 18:54:47 STARTING ENGINE 1 02241
2017-11-29 18:54:49 STOPPING ENGINE 1 02241
2017-11-29 18:54:49 STARTING ENGINE 1 02241
2017-11-29 18:54:51 STOPPING ENGINE 1 02241
2017-11-29 18:54:51 STARTING ENGINE 1 02241
2017-11-29 18:54:52 STOPPING ENGINE 1 02241
2017-11-29 18:54:52 STARTING ENGINE 1 02241
2017-11-29 18:54:54 STOPPING ENGINE 1 02241
2017-11-29 18:54:54 STARTING ENGINE 1 02241
2017-11-29 18:54:55 STOPPING ENGINE 1 02241
2017-11-29 18:54:55 STARTING ENGINE 1 02241
2017-11-29 18:54:56 STOPPING ENGINE 1 02241
2017-11-29 18:54:56 STARTING ENGINE 1 02241
2017-11-29 18:54:57 STOPPING ENGINE 1 02241
2017-11-29 18:54:58 STARTING ENGINE 1 02241
2017-11-29 18:54:59 STOPPING ENGINE 1 02241
2017-11-29 18:54:59 STARTING ENGINE 1 02241
2017-11-29 18:55:00 STOPPING ENGINE 1 02241
2017-11-29 18:55:00 STARTING ENGINE 1 02241
2017-11-29 18:55:01 STOPPING ENGINE 1 02241
2017-11-29 18:55:01 STARTING ENGINE 1 02241
2017-11-29 18:55:03 STOPPING ENGINE 1 02241
2017-11-29 18:55:03 STARTING ENGINE 1 02241
2017-11-29 18:55:05 STOPPING ENGINE 1 02241
2017-11-29 18:55:05 STARTING ENGINE 1 02241
2017-11-29 18:55:06 STOPPING ENGINE 1 02241
2017-11-29 18:55:07 STARTING ENGINE 1 02241
2017-11-29 18:55:08 STOPPING ENGINE 1 02241
2017-11-29 18:55:08 STARTING ENGINE 1 02241
2017-11-29 18:55:09 STOPPING ENGINE 1 02241
2017-11-29 18:55:09 STARTING ENGINE 1 02241
2017-11-29 18:55:11 STOPPING ENGINE 1 02241
2017-11-29 18:55:11 STARTING ENGINE 1 02241
2017-11-29 18:55:12 STOPPING ENGINE 1 02241
2017-11-29 18:55:12 STARTING ENGINE 1 02241
2017-11-29 18:55:13 STOPPING ENGINE 1 02241
2017-11-29 18:55:13 STARTING ENGINE 1 02241
2017-11-29 18:55:15 STOPPING ENGINE 1 02241
2017-11-29 18:55:15 STARTING ENGINE 1 02241
2017-11-29 18:55:16 STOPPING ENGINE 1 02241
2017-11-29 18:55:16 STARTING ENGINE 1 02241
2017-11-29 18:55:17 STOPPING ENGINE 1 02241
2017-11-29 18:55:17 STARTING ENGINE 1 02241
2017-11-29 18:56:50 STOPPING ENGINE 1 02241
2017-11-29 18:56:50 STARTING ENGINE 1 02241
2017-11-29 18:56:51 STOPPING ENGINE 1 02241
2017-11-29 18:56:51 STARTING ENGINE 1 02241
2017-11-29 18:56:52 STOPPING ENGINE 1 02241
2017-11-29 18:56:52 STARTING ENGINE 1 02241
2017-11-29 18:56:53 STOPPING ENGINE 1 02241
2017-11-29 18:56:54 STARTING ENGINE 1 02241
2017-11-29 18:56:55 STOPPING ENGINE 1 02241
2017-11-29 18:56:55 STARTING ENGINE 1 02241
2017-11-29 18:56:56 STOPPING ENGINE 1 02241
2017-11-29 18:56:56 STARTING ENGINE 1 02241
2017-11-29 18:56:57 STOPPING ENGINE 1 02241
2017-11-29 18:56:57 STARTING ENGINE 1 02241
2017-11-29 18:56:58 STOPPING ENGINE 1 02241
2017-11-29 18:56:59 STARTING ENGINE 1 02241
2017-11-29 18:57:00 STOPPING ENGINE 1 02241
2017-11-29 18:57:00 STARTING ENGINE 1 02241
2017-11-29 18:57:01 STOPPING ENGINE 1 02241
2017-11-29 18:57:01 STARTING ENGINE 1 02241
2017-11-29 18:57:02 STOPPING ENGINE 1 02240
2017-11-29 18:57:02 STARTING ENGINE 1 02240
2017-11-29 18:57:04 STOPPING ENGINE 1 02240
2017-11-29 18:57:04 STARTING ENGINE 1 02240
2017-11-29 18:57:05 STOPPING ENGINE 1 02240
2017-11-29 18:57:05 STARTING ENGINE 1 02240
2017-11-29 18:57:07 STOPPING ENGINE 1 12240
2017-11-29 18:57:07 STARTING ENGINE 1 12240
2017-11-29 18:57:08 STOPPING ENGINE 1 32240
2017-11-29 18:57:08 STARTING ENGINE 1 32240
2017-11-29 18:57:09 STOPPING ENGINE 1 32240
2017-11-29 18:57:09 STARTING ENGINE 1 32240
2017-11-29 18:57:10 STOPPING ENGINE 1 42240
2017-11-29 18:57:10 STARTING ENGINE 1 42240
2017-11-29 18:57:11 STOPPING ENGINE 1 52240
2017-11-29 18:57:12 STARTING ENGINE 1 62240
2017-11-29 18:57:13 STOPPING ENGINE 1 72240
2017-11-29 18:57:13 STARTING ENGINE 1 72240
2017-11-29 18:57:14 STOPPING ENGINE 1 52240
2017-11-29 18:57:14 STARTING ENGINE 1 52240
2017-11-29 18:57:15 STOPPING ENGINE 1 62240
2017-11-29 18:57:15 STARTING ENGINE 1 62240
2017-11-29 18:57:16 STOPPING ENGINE 1 72240
2017-11-29 18:57:16 STARTING ENGINE 1 72240
2017-11-29 18:57:17 STOPPING ENGINE 1 92240
2017-11-29 18:57:17 STARTING ENGINE 1 92240
2017-11-29 18:57:20 STOPPING ENGINE 1 92240
2017-11-29 18:57:20 STARTING ENGINE 1 92240
2017-11-29 18:57:21 STOPPING ENGINE 1 72240
2017-11-29 18:57:21 STARTING ENGINE 1 62240
2017-11-29 18:57:22 STOPPING ENGINE 1 62240
2017-11-29 18:57:22 STARTING ENGINE 1 62240
2017-11-29 18:57:23 STOPPING ENGINE 1 62240
2017-11-29 18:57:23 STARTING ENGINE 1 62240
2017-11-29 18:57:24 STOPPING ENGINE 1 92240
2017-11-29 18:57:24 STARTING ENGINE 1 102240
2017-11-29 18:57:25 STOPPING ENGINE 1 112240
2017-11-29 18:57:26 STARTING ENGINE 1 112240
2017-11-29 18:57:27 STOPPING ENGINE 1 112240
2017-11-29 18:57:27 STARTING ENGINE 1 112240
2017-11-29 18:57:28 STOPPING ENGINE 1 102240
2017-11-29 18:57:28 STARTING ENGINE 1 102240
2017-11-29 18:57:30 STOPPING ENGINE 1 72240
2017-11-29 18:57:30 STARTING ENGINE 1 72240
2017-11-29 18:57:31 STOPPING ENGINE 1 72240
2017-11-29 18:57:32 STARTING ENGINE 1 72240
2017-11-29 18:57:33 STOPPING ENGINE 1 62240
2017-11-29 18:57:33 STARTING ENGINE 1 62240
2017-11-29 18:57:34 STOPPING ENGINE 1 62240
2017-11-29 18:57:34 STARTING ENGINE 1 62240
2017-11-29 18:57:35 STOPPING ENGINE 1 72240
2017-11-29 18:57:35 STARTING ENGINE 1 72240
2017-11-29 18:57:36 STOPPING ENGINE 1 72240
2017-11-29 18:57:36 STARTING ENGINE 1 72240
2017-11-29 18:57:37 STOPPING ENGINE 1 72240
2017-11-29 18:57:38 STARTING ENGINE 1 72240
2017-11-29 18:57:39 STOPPING ENGINE 1 72240
2017-11-29 18:57:39 STARTING ENGINE 1 72240
2017-11-29 18:57:40 STOPPING ENGINE 1 72240
2017-11-29 18:57:40 STARTING ENGINE 1 72240
2017-11-29 18:57:41 STOPPING ENGINE 1 72240
2017-11-29 18:57:41 STARTING ENGINE 1 72240
2017-11-29 18:57:42 STOPPING ENGINE 1 72240
2017-11-29 18:57:42 STARTING ENGINE 1 72240
2017-11-29 18:57:43 STOPPING ENGINE 1 72240
2017-11-29 18:57:43 STARTING ENGINE 1 72240
2017-11-29 18:57:44 STOPPING ENGINE 1 72240
2017-11-29 18:57:45 STARTING ENGINE 1 72240
2017-11-29 18:57:46 STOPPING ENGINE 1 72240
2017-11-29 18:57:46 STARTING ENGINE 1 72240
2017-11-29 18:57:47 STOPPING ENGINE 1 72240
2017-11-29 18:57:47 STARTING ENGINE 1 72240
2017-11-29 18:57:48 STOPPING ENGINE 1 72240
2017-11-29 18:57:48 STARTING ENGINE 1 72240
2017-11-29 18:57:49 STOPPING ENGINE 1 72240
2017-11-29 18:57:49 STARTING ENGINE 1 72240
2017-11-29 18:57:50 STOPPING ENGINE 1 62240
2017-11-29 18:57:51 STARTING ENGINE 1 62240
2017-11-29 18:57:52 STOPPING ENGINE 1 62240
2017-11-29 18:57:52 STARTING ENGINE 1 62240
2017-11-29 18:59:05 STOPPING ENGINE 1 62241
2017-11-29 18:59:06 STARTING ENGINE 1 62241
2017-11-29 18:59:06 STOPPING ENGINE 1 72241
2017-11-29 18:59:07 STARTING ENGINE 1 72241
2017-11-29 18:59:07 STOPPING ENGINE 1 72241
2017-11-29 18:59:08 STARTING ENGINE 1 72241
2017-11-29 18:59:08 STOPPING ENGINE 1 62241
2017-11-29 18:59:08 STARTING ENGINE 1 62241
2017-11-29 18:59:09 STOPPING ENGINE 1 52241
2017-11-29 18:59:09 STARTING ENGINE 1 52241
2017-11-29 18:59:10 STOPPING ENGINE 1 52241
2017-11-29 18:59:10 STARTING ENGINE 1 62241
2017-11-29 18:59:11 STOPPING ENGINE 1 62241
2017-11-29 18:59:11 STARTING ENGINE 1 62241
2017-11-29 18:59:12 STOPPING ENGINE 1 42241
2017-11-29 18:59:12 STARTING ENGINE 1 42241
2017-11-29 18:59:13 STOPPING ENGINE 1 42241
2017-11-29 18:59:13 STARTING ENGINE 1 42241
2017-11-29 18:59:14 STOPPING ENGINE 1 52241
2017-11-29 18:59:14 STARTING ENGINE 1 52241
2017-11-29 18:59:15 STOPPING ENGINE 1 62241
2017-11-29 18:59:15 STARTING ENGINE 1 62241
2017-11-29 18:59:16 STOPPING ENGINE 1 62241
2017-11-29 18:59:16 STARTING ENGINE 1 62241
2017-11-29 18:59:17 STOPPING ENGINE 1 62241
2017-11-29 18:59:17 STARTING ENGINE 1 62241
2017-11-29 18:59:18 STOPPING ENGINE 1 72241
2017-11-29 18:59:18 STARTING ENGINE 1 72241
2017-11-29 18:59:19 STOPPING ENGINE 1 72241
2017-11-29 18:59:19 STARTING ENGINE 1 72241
2017-11-29 18:59:21 STOPPING ENGINE 1 62241
2017-11-29 18:59:21 STARTING ENGINE 1 62241
2017-11-29 18:59:22 STOPPING ENGINE 1 62241
2017-11-29 18:59:22 STARTING ENGINE 1 62241
2017-11-29 18:59:23 STOPPING ENGINE 1 62241
2017-11-29 18:59:23 STARTING ENGINE 1 62241
2017-11-29 18:59:24 STOPPING ENGINE 1 72241
2017-11-29 18:59:24 STARTING ENGINE 1 72241
2017-11-29 18:59:25 STOPPING ENGINE 1 72241
2017-11-29 18:59:25 STARTING ENGINE 1 72241
2017-11-29 18:59:26 STOPPING ENGINE 1 62241
2017-11-29 18:59:26 STARTING ENGINE 1 62241
2017-11-29 18:59:27 STOPPING ENGINE 1 62241
2017-11-29 18:59:27 STARTING ENGINE 1 72241
2017-11-29 18:59:28 STOPPING ENGINE 1 72241
2017-11-29 18:59:28 STARTING ENGINE 1 72241
2017-11-29 18:59:29 STOPPING ENGINE 1 72241
2017-11-29 18:59:29 STARTING ENGINE 1 72241
2017-11-29 18:59:30 STOPPING ENGINE 1 52241
2017-11-29 18:59:30 STARTING ENGINE 1 52241
2017-11-29 18:59:31 STOPPING ENGINE 1 52241
2017-11-29 18:59:31 STARTING ENGINE 1 52241
2017-11-29 18:59:33 STOPPING ENGINE 1 52241
2017-11-29 18:59:33 STARTING ENGINE 1 52241
2017-11-29 18:59:34 STOPPING ENGINE 1 62241
2017-11-29 18:59:34 STARTING ENGINE 1 62241
2017-11-29 18:59:35 STOPPING ENGINE 1 62241
2017-11-29 18:59:35 STARTING ENGINE 1 62241
2017-11-29 18:59:36 STOPPING ENGINE 1 42241
2017-11-29 18:59:36 STARTING ENGINE 1 42241
2017-11-29 18:59:37 STOPPING ENGINE 1 42241
2017-11-29 18:59:37 STARTING ENGINE 1 42241
2017-11-29 18:59:38 STOPPING ENGINE 1 52241
2017-11-29 18:59:38 STARTING ENGINE 1 52241
2017-11-29 18:59:39 STOPPING ENGINE 1 52241
2017-11-29 18:59:39 STARTING ENGINE 1 62241
2017-11-29 18:59:40 STOPPING ENGINE 1 72241
2017-11-29 18:59:40 STARTING ENGINE 1 72241
2017-11-29 18:59:41 STOPPING ENGINE 1 72241
2017-11-29 18:59:41 STARTING ENGINE 1 72241
2017-11-29 18:59:42 STOPPING ENGINE 1 72241
2017-11-29 18:59:42 STARTING ENGINE 1 72241
2017-11-29 18:59:43 STOPPING ENGINE 1 72241
2017-11-29 18:59:43 STARTING ENGINE 1 72241
2017-11-29 18:59:43 STOPPING ENGINE 1 72241
2017-11-29 18:59:44 STARTING ENGINE 1 72241
2017-11-29 18:59:44 STOPPING ENGINE 1 72241
2017-11-29 18:59:45 STARTING ENGINE 1 72241
2017-11-29 18:59:45 STOPPING ENGINE 1 72241
2017-11-29 18:59:46 STARTING ENGINE 1 72241
2017-11-29 18:59:46 STOPPING ENGINE 1 72241
2017-11-29 18:59:47 STARTING ENGINE 1 72241
2017-11-29 18:59:48 STOPPING ENGINE 1 72241
2017-11-29 18:59:48 STARTING ENGINE 1 72241
2017-11-29 18:59:49 STOPPING ENGINE 1 72241
2017-11-29 18:59:49 STARTING ENGINE 1 72241
2017-11-29 18:59:50 STOPPING ENGINE 1 72241
2017-11-29 18:59:50 STARTING ENGINE 1 72241
2017-11-29 18:59:51 STOPPING ENGINE 1 72241
2017-11-29 18:59:51 STARTING ENGINE 1 72241
2017-11-29 18:59:52 STOPPING ENGINE 1 72241
2017-11-29 18:59:52 STARTING ENGINE 1 72241
2017-11-29 18:59:53 STOPPING ENGINE 1 72241
2017-11-29 18:59:53 STARTING ENGINE 1 72241
2017-11-29 18:59:54 STOPPING ENGINE 1 72241
2017-11-29 18:59:54 STARTING ENGINE 1 72241
2017-11-29 18:59:55 STOPPING ENGINE 1 72241
2017-11-29 18:59:55 STARTING ENGINE 1 72241
2017-11-29 18:59:56 STOPPING ENGINE 1 72241
2017-11-29 18:59:56 STARTING ENGINE 1 62241
2017-11-29 18:59:57 STOPPING ENGINE 1 52241
2017-11-29 18:59:57 STARTING ENGINE 1 52241
2017-11-29 18:59:58 STOPPING ENGINE 1 42241
2017-11-29 18:59:58 STARTING ENGINE 1 42241
2017-11-29 19:00:00 STOPPING ENGINE 1 72241
2017-11-29 19:00:00 STARTING ENGINE 1 72241
2017-11-29 19:00:01 STOPPING ENGINE 1 72241
2017-11-29 19:00:01 STARTING ENGINE 1 72241
2017-11-29 19:00:02 STOPPING ENGINE 1 62241
2017-11-29 19:00:02 STARTING ENGINE 1 62241
2017-11-29 19:00:03 STOPPING ENGINE 1 52241
2017-11-29 19:00:03 STARTING ENGINE 1 52241
2017-11-29 19:00:04 STOPPING ENGINE 1 52241
2017-11-29 19:00:04 STARTING ENGINE 1 52241
2017-11-29 19:00:05 STOPPING ENGINE 1 52241
2017-11-29 19:00:05 STARTING ENGINE 1 52241
2017-11-29 19:00:06 STOPPING ENGINE 1 52241
2017-11-29 19:00:06 STARTING ENGINE 1 42241
2017-11-29 19:00:07 STOPPING ENGINE 1 52241
2017-11-29 19:00:07 STARTING ENGINE 1 52241
2017-11-29 19:00:08 STOPPING ENGINE 1 62241
2017-11-29 19:00:08 STARTING ENGINE 1 62241
2017-11-29 19:00:09 STOPPING ENGINE 1 72241
2017-11-29 19:00:09 STARTING ENGINE 1 72241
2017-11-29 19:00:10 STOPPING ENGINE 1 72241
2017-11-29 19:00:10 STARTING ENGINE 1 72241
2017-11-29 19:00:12 STOPPING ENGINE 1 72241
2017-11-29 19:00:12 STARTING ENGINE 1 72241
2017-11-29 19:00:13 STOPPING ENGINE 1 72241
2017-11-29 19:00:13 STARTING ENGINE 1 72241
2017-11-29 19:00:14 STOPPING ENGINE 1 72241
2017-11-29 19:00:14 STARTING ENGINE 1 72241
2017-11-29 19:00:15 STOPPING ENGINE 1 62241
2017-11-29 19:00:15 STARTING ENGINE 1 62241
2017-11-29 19:00:16 STOPPING ENGINE 1 62241
2017-11-29 19:00:16 STARTING ENGINE 1 62241
2017-11-29 19:00:17 STOPPING ENGINE 1 52241
2017-11-29 19:00:17 STARTING ENGINE 1 52241
2017-11-29 19:00:18 STOPPING ENGINE 1 62241
2017-11-29 19:00:18 STARTING ENGINE 1 62241
2017-11-29 19:00:19 STOPPING ENGINE 1 72241
2017-11-29 19:00:19 STARTING ENGINE 1 72241
2017-11-29 19:00:20 STOPPING ENGINE 1 72241
2017-11-29 19:00:20 STARTING ENGINE 1 72241
2017-11-29 19:00:21 STOPPING ENGINE 1 72241
2017-11-29 19:00:21 STARTING ENGINE 1 72241
2017-11-29 19:00:22 STOPPING ENGINE 1 72241
2017-11-29 19:00:22 STARTING ENGINE 1 72241
2017-11-29 19:00:23 STOPPING ENGINE 1 72241
2017-11-29 19:00:23 STARTING ENGINE 1 72241
2017-11-29 19:00:24 STOPPING ENGINE 1 72241
2017-11-29 19:00:24 STARTING ENGINE 1 72241
2017-11-29 19:00:25 STOPPING ENGINE 1 72241
2017-11-29 19:00:25 STARTING ENGINE 1 62241
2017-11-29 19:00:26 STOPPING ENGINE 1 52241
2017-11-29 19:00:26 STARTING ENGINE 1 52241
2017-11-29 19:00:27 STOPPING ENGINE 1 42241
2017-11-29 19:00:27 STARTING ENGINE 1 42241
2017-11-29 19:00:28 STOPPING ENGINE 1 32241
2017-11-29 19:00:28 STARTING ENGINE 1 32241
2017-11-29 19:00:29 STOPPING ENGINE 1 22241
2017-11-29 19:00:29 STARTING ENGINE 1 22241
2017-11-29 19:00:30 STOPPING ENGINE 1 22241
2017-11-29 19:00:30 STARTING ENGINE 1 22241
2017-11-29 19:00:31 STOPPING ENGINE 1 42241
2017-11-29 19:00:31 STARTING ENGINE 1 42241
2017-11-29 19:00:32 STOPPING ENGINE 1 42241
2017-11-29 19:00:32 STARTING ENGINE 1 42241
2017-11-29 19:00:33 STOPPING ENGINE 1 52241
2017-11-29 19:00:33 STARTING ENGINE 1 52241
2017-11-29 19:00:34 STOPPING ENGINE 1 52241
2017-11-29 19:00:34 STARTING ENGINE 1 52241
2017-11-29 19:00:35 STOPPING ENGINE 1 52241
2017-11-29 19:00:35 STARTING ENGINE 1 52241
2017-11-29 19:00:36 STOPPING ENGINE 1 42241
2017-11-29 19:00:36 STARTING ENGINE 1 42241
2017-11-29 19:00:37 STOPPING ENGINE 1 32241
2017-11-29 19:00:37 STARTING ENGINE 1 32241
2017-11-29 19:00:38 STOPPING ENGINE 1 42241
2017-11-29 19:00:38 STARTING ENGINE 1 42241
2017-11-29 19:00:39 STOPPING ENGINE 1 42241
2017-11-29 19:00:39 STARTING ENGINE 1 52241
2017-11-29 19:00:40 STOPPING ENGINE 1 62241
2017-11-29 19:00:40 STARTING ENGINE 1 62241
2017-11-29 19:00:41 STOPPING ENGINE 1 72241
2017-11-29 19:00:41 STARTING ENGINE 1 72241
2017-11-29 19:00:42 STOPPING ENGINE 1 72241
2017-11-29 19:00:42 STARTING ENGINE 1 72241
2017-11-29 19:00:43 STOPPING ENGINE 1 72241
2017-11-29 19:00:43 STARTING ENGINE 1 72241
2017-11-29 19:00:44 STOPPING ENGINE 1 72241
2017-11-29 19:00:44 STARTING ENGINE 1 72241
2017-11-29 19:00:45 STOPPING ENGINE 1 72241
2017-11-29 19:00:45 STARTING ENGINE 1 72241
2017-11-29 19:00:46 STOPPING ENGINE 1 62241
2017-11-29 19:00:46 STARTING ENGINE 1 62241
2017-11-29 19:00:47 STOPPING ENGINE 1 62241
2017-11-29 19:00:47 STARTING ENGINE 1 62241
2017-11-29 19:00:48 STOPPING ENGINE 1 72241
2017-11-29 19:00:48 STARTING ENGINE 1 72241
2017-11-29 19:00:49 STOPPING ENGINE 1 72241
2017-11-29 19:00:49 STARTING ENGINE 1 72241
2017-11-29 19:00:50 STOPPING ENGINE 1 62241
2017-11-29 19:00:50 STARTING ENGINE 1 62241
2017-11-29 19:00:51 STOPPING ENGINE 1 42241
2017-11-29 19:00:51 STARTING ENGINE 1 42241
2017-11-29 19:00:52 STOPPING ENGINE 1 42241
2017-11-29 19:00:52 STARTING ENGINE 1 42241
2017-11-29 19:00:54 STOPPING ENGINE 1 62241
2017-11-29 19:00:54 STARTING ENGINE 1 62241
2017-11-29 19:00:55 STOPPING ENGINE 1 52241
2017-11-29 19:00:55 STARTING ENGINE 1 52241
2017-11-29 19:00:56 STOPPING ENGINE 1 52241
2017-11-29 19:00:56 STARTING ENGINE 1 52241
2017-11-29 19:00:57 STOPPING ENGINE 1 72241
2017-11-29 19:00:57 STARTING ENGINE 1 72241
2017-11-29 19:00:58 STOPPING ENGINE 1 72241
2017-11-29 19:00:58 STARTING ENGINE 1 72241
2017-11-29 19:00:59 STOPPING ENGINE 1 72241
2017-11-29 19:00:59 STARTING ENGINE 1 72241
2017-11-29 19:01:00 STOPPING ENGINE 1 52241
2017-11-29 19:01:00 STARTING ENGINE 1 52241
2017-11-29 19:01:01 STOPPING ENGINE 1 42241
2017-11-29 19:01:01 STARTING ENGINE 1 42241
2017-11-29 19:01:02 STOPPING ENGINE 1 42241
2017-11-29 19:01:02 STARTING ENGINE 1 42241
2017-11-29 19:01:03 STOPPING ENGINE 1 42241
2017-11-29 19:01:03 STARTING ENGINE 1 42241
2017-11-29 19:01:04 STOPPING ENGINE 1 62241
2017-11-29 19:01:04 STARTING ENGINE 1 62241
2017-11-29 19:01:04 STOPPING ENGINE 1 62241
2017-11-29 19:01:04 STARTING ENGINE 1 62241
2017-11-29 19:01:04 STOPPING ENGINE 1 62241
2017-11-29 19:01:04 STARTING ENGINE 1 62241
2017-11-29 19:01:04 STOPPING ENGINE 1 62241
2017-11-29 19:01:04 STARTING ENGINE 1 62241
2017-11-29 19:01:04 STOPPING ENGINE 1 62241
2017-11-29 19:01:05 STARTING ENGINE 1 62241
2017-11-29 19:01:05 STOPPING ENGINE 1 62241
2017-11-29 19:01:05 STARTING ENGINE 1 62241
2017-11-29 19:01:05 STOPPING ENGINE 1 62241
2017-11-29 19:01:05 STARTING ENGINE 1 62241
2017-11-29 19:01:05 STOPPING ENGINE 1 62241
2017-11-29 19:01:05 STARTING ENGINE 1 62241
2017-11-29 19:01:05 STOPPING ENGINE 1 62241
2017-11-29 19:01:05 STARTING ENGINE 1 62241
2017-11-29 19:01:06 STOPPING ENGINE 1 62241
2017-11-29 19:01:06 STARTING ENGINE 1 72241
2017-11-29 19:01:06 STOPPING ENGINE 1 72241
2017-11-29 19:01:06 STARTING ENGINE 1 72241
2017-11-29 19:01:06 STOPPING ENGINE 1 72241
2017-11-29 19:01:06 STARTING ENGINE 1 72241
2017-11-29 19:01:06 STOPPING ENGINE 1 72241
2017-11-29 19:01:06 STARTING ENGINE 1 72241
2017-11-29 19:01:06 STOPPING ENGINE 1 72241
2017-11-29 19:01:07 STARTING ENGINE 1 72241
2017-11-29 19:01:07 STOPPING ENGINE 1 72241
2017-11-29 19:01:07 STARTING ENGINE 1 72241
2017-11-29 19:01:07 STOPPING ENGINE 1 72241
2017-11-29 19:01:07 STARTING ENGINE 1 72241
2017-11-29 19:01:07 STOPPING ENGINE 1 72241
2017-11-29 19:01:07 STARTING ENGINE 1 72241
2017-11-29 19:01:07 STOPPING ENGINE 1 72241
2017-11-29 19:01:07 STARTING ENGINE 1 72241
2017-11-29 19:01:07 STOPPING ENGINE 1 72241
2017-11-29 19:01:08 STARTING ENGINE 1 72241
2017-11-29 19:01:08 STOPPING ENGINE 1 72241
2017-11-29 19:01:08 STARTING ENGINE 1 72241
2017-11-29 19:01:08 STOPPING ENGINE 1 72241
2017-11-29 19:01:08 STARTING ENGINE 1 72241
2017-11-29 19:01:08 STOPPING ENGINE 1 72241
2017-11-29 19:01:08 STARTING ENGINE 1 72241
2017-11-29 19:01:08 STOPPING ENGINE 1 72241
2017-11-29 19:01:08 STARTING ENGINE 1 72241
2017-11-29 19:01:09 STOPPING ENGINE 1 72241
2017-11-29 19:01:09 STARTING ENGINE 1 72241
2017-11-29 19:01:09 STOPPING ENGINE 1 72241
2017-11-29 19:01:09 STARTING ENGINE 1 72241
2017-11-29 19:01:10 STOPPING ENGINE 1 72241
2017-11-29 19:01:10 STARTING ENGINE 1 72241
2017-11-29 19:01:10 STOPPING ENGINE 1 72241
2017-11-29 19:01:10 STARTING ENGINE 1 72241
2017-11-29 19:01:10 STOPPING ENGINE 1 72241
2017-11-29 19:01:10 STARTING ENGINE 1 72241
2017-11-29 19:01:10 STOPPING ENGINE 1 72241
2017-11-29 19:01:10 STARTING ENGINE 1 72241
2017-11-29 19:01:10 STOPPING ENGINE 1 72241
2017-11-29 19:01:11 STARTING ENGINE 1 72241
2017-11-29 19:01:11 STOPPING ENGINE 1 72241
2017-11-29 19:01:11 STARTING ENGINE 1 72241
2017-11-29 19:01:11 STOPPING ENGINE 1 72241
2017-11-29 19:01:11 STARTING ENGINE 1 72241
2017-11-29 19:01:11 STOPPING ENGINE 1 72241
2017-11-29 19:01:11 STARTING ENGINE 1 72241
2017-11-29 19:01:11 STOPPING ENGINE 1 72241
2017-11-29 19:01:11 STARTING ENGINE 1 72241
2017-11-29 19:01:12 STOPPING ENGINE 1 72241
2017-11-29 19:01:12 STARTING ENGINE 1 72241
2017-11-29 19:01:12 STOPPING ENGINE 1 72241
2017-11-29 19:01:12 STARTING ENGINE 1 72241
2017-11-29 19:01:12 STOPPING ENGINE 1 72241
2017-11-29 19:01:12 STARTING ENGINE 1 72241
2017-11-29 19:01:12 STOPPING ENGINE 1 72241
2017-11-29 19:01:12 STARTING ENGINE 1 72241
2017-11-29 19:01:12 STOPPING ENGINE 1 72241
2017-11-29 19:01:13 STARTING ENGINE 1 72241
2017-11-29 19:01:13 STOPPING ENGINE 1 62241
2017-11-29 19:01:13 STARTING ENGINE 1 62241
2017-11-29 19:01:13 STOPPING ENGINE 1 62241
2017-11-29 19:01:13 STARTING ENGINE 1 72241
2017-11-29 19:01:13 STOPPING ENGINE 1 72241
2017-11-29 19:01:13 STARTING ENGINE 1 72241
2017-11-29 19:01:13 STOPPING ENGINE 1 72241
2017-11-29 19:01:13 STARTING ENGINE 1 72241
2017-11-29 19:01:14 STOPPING ENGINE 1 72241
2017-11-29 19:01:14 STARTING ENGINE 1 72241
2017-11-29 19:01:14 STOPPING ENGINE 1 72241
2017-11-29 19:01:14 STARTING ENGINE 1 72241
2017-11-29 19:01:14 STOPPING ENGINE 1 72241
2017-11-29 19:01:15 STARTING ENGINE 1 72241
2017-11-29 19:01:15 STOPPING ENGINE 1 72241
2017-11-29 19:01:16 STARTING ENGINE 1 72241
2017-11-29 19:01:16 STOPPING ENGINE 1 72241
2017-11-29 19:01:16 STARTING ENGINE 1 72241
2017-11-29 19:01:16 STOPPING ENGINE 1 72241
2017-11-29 19:01:16 STARTING ENGINE 1 72241
2017-11-29 19:01:16 STOPPING ENGINE 1 62241
2017-11-29 19:01:16 STARTING ENGINE 1 62241
2017-11-29 19:01:16 STOPPING ENGINE 1 62241
2017-11-29 19:01:16 STARTING ENGINE 1 62241
2017-11-29 19:01:17 STOPPING ENGINE 1 62241
2017-11-29 19:01:17 STARTING ENGINE 1 62241
2017-11-29 19:01:17 STOPPING ENGINE 1 62241
2017-11-29 19:01:17 STARTING ENGINE 1 62241
2017-11-29 19:01:17 STOPPING ENGINE 1 52241
2017-11-29 19:01:17 STARTING ENGINE 1 52241
2017-11-29 19:01:17 STOPPING ENGINE 1 52241
2017-11-29 19:01:17 STARTING ENGINE 1 52241
2017-11-29 19:01:17 STOPPING ENGINE 1 52241
2017-11-29 19:01:18 STARTING ENGINE 1 52241
2017-11-29 19:01:18 STOPPING ENGINE 1 52241
2017-11-29 19:01:18 STARTING ENGINE 1 52241
2017-11-29 19:01:18 STOPPING ENGINE 1 52241
2017-11-29 19:01:18 STARTING ENGINE 1 52241
2017-11-29 19:01:18 STOPPING ENGINE 1 52241
2017-11-29 19:01:18 STARTING ENGINE 1 52241
2017-11-29 19:01:18 STOPPING ENGINE 1 52241
2017-11-29 19:01:18 STARTING ENGINE 1 52241
2017-11-29 19:01:19 STOPPING ENGINE 1 52241
2017-11-29 19:01:19 STARTING ENGINE 1 52241
2017-11-29 19:01:19 STOPPING ENGINE 1 62241
2017-11-29 19:01:19 STARTING ENGINE 1 62241
2017-11-29 19:01:19 STOPPING ENGINE 1 62241
2017-11-29 19:01:19 STARTING ENGINE 1 62241
2017-11-29 19:01:19 STOPPING ENGINE 1 62241
2017-11-29 19:01:19 STARTING ENGINE 1 62241
2017-11-29 19:01:19 STOPPING ENGINE 1 62241
2017-11-29 19:01:20 STARTING ENGINE 1 72241
2017-11-29 19:01:20 STOPPING ENGINE 1 72241
2017-11-29 19:01:20 STARTING ENGINE 1 72241
2017-11-29 19:01:20 STOPPING ENGINE 1 72241
2017-11-29 19:01:20 STARTING ENGINE 1 72241
2017-11-29 19:01:20 STOPPING ENGINE 1 72241
2017-11-29 19:01:20 STARTING ENGINE 1 72241
2017-11-29 19:01:20 STOPPING ENGINE 1 72241
2017-11-29 19:01:20 STARTING ENGINE 1 72241
2017-11-29 19:01:21 STOPPING ENGINE 1 72241
2017-11-29 19:01:21 STARTING ENGINE 1 72241
2017-11-29 19:01:21 STOPPING ENGINE 1 72241
2017-11-29 19:01:21 STARTING ENGINE 1 72241
2017-11-29 19:01:21 STOPPING ENGINE 1 72241
2017-11-29 19:01:21 STARTING ENGINE 1 72241
2017-11-29 19:01:21 STOPPING ENGINE 1 72241
2017-11-29 19:01:21 STARTING ENGINE 1 72241
2017-11-29 19:01:21 STOPPING ENGINE 1 72241
2017-11-29 19:01:21 STARTING ENGINE 1 72241
2017-11-29 19:01:22 STOPPING ENGINE 1 72241
2017-11-29 19:01:22 STARTING ENGINE 1 72241
2017-11-29 19:01:22 STOPPING ENGINE 1 72241
2017-11-29 19:01:22 STARTING ENGINE 1 72241
2017-11-29 19:01:22 STOPPING ENGINE 1 72241
2017-11-29 19:01:22 STARTING ENGINE 1 72241
2017-11-29 19:01:22 STOPPING ENGINE 1 72241
2017-11-29 19:01:22 STARTING ENGINE 1 72241
2017-11-29 19:01:23 STOPPING ENGINE 1 72241
2017-11-29 19:01:23 STARTING ENGINE 1 72241
2017-11-29 19:01:23 STOPPING ENGINE 1 72241
2017-11-29 19:01:23 STARTING ENGINE 1 72241
2017-11-29 19:01:23 STOPPING ENGINE 1 72241
2017-11-29 19:01:23 STARTING ENGINE 1 72241
2017-11-29 19:01:23 STOPPING ENGINE 1 72241
2017-11-29 19:01:24 STARTING ENGINE 1 72241
2017-11-29 19:01:24 STOPPING ENGINE 1 72241
2017-11-29 19:01:24 STARTING ENGINE 1 72241
2017-11-29 19:01:24 STOPPING ENGINE 1 72241
2017-11-29 19:01:24 STARTING ENGINE 1 72241
2017-11-29 19:01:24 STOPPING ENGINE 1 72241
2017-11-29 19:01:24 STARTING ENGINE 1 72241
2017-11-29 19:01:24 STOPPING ENGINE 1 72241
2017-11-29 19:01:24 STARTING ENGINE 1 72241
2017-11-29 19:01:25 STOPPING ENGINE 1 72241
2017-11-29 19:01:25 STARTING ENGINE 1 72241
2017-11-29 19:01:25 STOPPING ENGINE 1 72241
2017-11-29 19:01:25 STARTING ENGINE 1 72241
2017-11-29 19:01:25 STOPPING ENGINE 1 72241
2017-11-29 19:01:25 STARTING ENGINE 1 72241
2017-11-29 19:01:25 STOPPING ENGINE 1 72241
2017-11-29 19:01:25 STARTING ENGINE 1 72241
2017-11-29 19:01:25 STOPPING ENGINE 1 72241
2017-11-29 19:01:26 STARTING ENGINE 1 62241
2017-11-29 19:01:26 STOPPING ENGINE 1 62241
2017-11-29 19:01:26 STARTING ENGINE 1 62241
2017-11-29 19:01:26 STOPPING ENGINE 1 62241
2017-11-29 19:01:26 STARTING ENGINE 1 62241
2017-11-29 19:01:26 STOPPING ENGINE 1 62241
2017-11-29 19:01:26 STARTING ENGINE 1 62241
2017-11-29 19:01:26 STOPPING ENGINE 1 62241
2017-11-29 19:01:26 STARTING ENGINE 1 62241
2017-11-29 19:01:27 STOPPING ENGINE 1 62241
2017-11-29 19:01:27 STARTING ENGINE 1 62241
2017-11-29 19:01:27 STOPPING ENGINE 1 62241
2017-11-29 19:01:27 STARTING ENGINE 1 62241
2017-11-29 19:01:27 STOPPING ENGINE 1 62241
2017-11-29 19:01:27 STARTING ENGINE 1 62241
2017-11-29 19:01:27 STOPPING ENGINE 1 72241
2017-11-29 19:01:27 STARTING ENGINE 1 72241
2017-11-29 19:01:27 STOPPING ENGINE 1 72241
2017-11-29 19:01:28 STARTING ENGINE 1 72241
2017-11-29 19:01:28 STOPPING ENGINE 1 72241
2017-11-29 19:01:28 STARTING ENGINE 1 72241
2017-11-29 19:01:28 STOPPING ENGINE 1 72241
2017-11-29 19:01:28 STARTING ENGINE 1 72241
2017-11-29 19:01:28 STOPPING ENGINE 1 72241
2017-11-29 19:01:28 STARTING ENGINE 1 72241
2017-11-29 19:01:28 STOPPING ENGINE 1 72241
2017-11-29 19:01:28 STARTING ENGINE 1 72241
2017-11-29 19:01:29 STOPPING ENGINE 1 72241
2017-11-29 19:01:29 STARTING ENGINE 1 72241
2017-11-29 19:01:29 STOPPING ENGINE 1 72241
2017-11-29 19:01:29 STARTING ENGINE 1 72241
2017-11-29 19:01:29 STOPPING ENGINE 1 72241
2017-11-29 19:01:29 STARTING ENGINE 1 72241
2017-11-29 19:01:29 STOPPING ENGINE 1 72241
2017-11-29 19:01:29 STARTING ENGINE 1 72241
2017-11-29 19:01:29 STOPPING ENGINE 1 72241
2017-11-29 19:01:29 STARTING ENGINE 1 72241
2017-11-29 19:01:30 STOPPING ENGINE 1 72241
2017-11-29 19:01:30 STARTING ENGINE 1 72241
2017-11-29 19:01:30 STOPPING ENGINE 1 72241
2017-11-29 19:01:30 STARTING ENGINE 1 72241
2017-11-29 19:01:30 STOPPING ENGINE 1 72241
2017-11-29 19:01:30 STARTING ENGINE 1 72241
2017-11-29 19:01:30 STOPPING ENGINE 1 72241
2017-11-29 19:01:30 STARTING ENGINE 1 72241
2017-11-29 19:01:30 STOPPING ENGINE 1 72241
2017-11-29 19:01:31 STARTING ENGINE 1 72241
2017-11-29 19:01:31 STOPPING ENGINE 1 72241
2017-11-29 19:01:31 STARTING ENGINE 1 72241
2017-11-29 19:01:31 STOPPING ENGINE 1 72241
2017-11-29 19:01:31 STARTING ENGINE 1 72241
2017-11-29 19:01:31 STOPPING ENGINE 1 72241
2017-11-29 19:01:31 STARTING ENGINE 1 72241
2017-11-29 19:01:31 STOPPING ENGINE 1 72241
2017-11-29 19:01:31 STARTING ENGINE 1 72241
2017-11-29 19:01:32 STOPPING ENGINE 1 72241
2017-11-29 19:01:32 STARTING ENGINE 1 72241
2017-11-29 19:01:32 STOPPING ENGINE 1 72241
2017-11-29 19:01:32 STARTING ENGINE 1 72241
2017-11-29 19:01:32 STOPPING ENGINE 1 72241
2017-11-29 19:01:32 STARTING ENGINE 1 72241
2017-11-29 19:01:32 STOPPING ENGINE 1 72241
2017-11-29 19:01:32 STARTING ENGINE 1 72241
2017-11-29 19:01:32 STOPPING ENGINE 1 72241
2017-11-29 19:01:33 STARTING ENGINE 1 72241
2017-11-29 19:01:33 STOPPING ENGINE 1 72241
2017-11-29 19:01:33 STARTING ENGINE 1 72241
2017-11-29 19:01:33 STOPPING ENGINE 1 72241
2017-11-29 19:01:33 STARTING ENGINE 1 72241
2017-11-29 19:01:33 STOPPING ENGINE 1 72241
2017-11-29 19:01:33 STARTING ENGINE 1 72241
2017-11-29 19:01:33 STOPPING ENGINE 1 72241
2017-11-29 19:01:33 STARTING ENGINE 1 72241
2017-11-29 19:01:34 STOPPING ENGINE 1 72241
2017-11-29 19:01:34 STARTING ENGINE 1 72241
2017-11-29 19:01:34 STOPPING ENGINE 1 72241
2017-11-29 19:01:34 STARTING ENGINE 1 72241
2017-11-29 19:01:34 STOPPING ENGINE 1 72241
2017-11-29 19:01:34 STARTING ENGINE 1 62241
2017-11-29 19:01:34 STOPPING ENGINE 1 62241
2017-11-29 19:01:34 STARTING ENGINE 1 62241
2017-11-29 19:01:34 STOPPING ENGINE 1 62241
2017-11-29 19:01:35 STARTING ENGINE 1 62241
2017-11-29 19:01:35 STOPPING ENGINE 1 62241
2017-11-29 19:01:35 STARTING ENGINE 1 62241
2017-11-29 19:01:35 STOPPING ENGINE 1 62241
2017-11-29 19:01:35 STARTING ENGINE 1 62241
2017-11-29 19:01:35 STOPPING ENGINE 1 62241
2017-11-29 19:01:35 STARTING ENGINE 1 62241
2017-11-29 19:01:36 STOPPING ENGINE 1 72241
2017-11-29 19:01:36 STARTING ENGINE 1 72241
2017-11-29 19:01:36 STOPPING ENGINE 1 72241
2017-11-29 19:01:36 STARTING ENGINE 1 72241
2017-11-29 19:01:36 STOPPING ENGINE 1 72241
2017-11-29 19:01:36 STARTING ENGINE 1 72241
2017-11-29 19:01:36 STOPPING ENGINE 1 72241
2017-11-29 19:01:36 STARTING ENGINE 1 72241
2017-11-29 19:01:36 STOPPING ENGINE 1 72241
2017-11-29 19:01:37 STARTING ENGINE 1 72241
2017-11-29 19:01:37 STOPPING ENGINE 1 72241
2017-11-29 19:01:37 STARTING ENGINE 1 72241
2017-11-29 19:01:37 STOPPING ENGINE 1 72241
2017-11-29 19:01:37 STARTING ENGINE 1 72241
2017-11-29 19:01:37 STOPPING ENGINE 1 72241
2017-11-29 19:01:37 STARTING ENGINE 1 72241
2017-11-29 19:01:37 STOPPING ENGINE 1 62241
2017-11-29 19:01:37 STARTING ENGINE 1 62241
2017-11-29 19:01:38 STOPPING ENGINE 1 62241
2017-11-29 19:01:38 STARTING ENGINE 1 62241
2017-11-29 19:01:38 STOPPING ENGINE 1 62241
2017-11-29 19:01:38 STARTING ENGINE 1 62241
2017-11-29 19:01:38 STOPPING ENGINE 1 62241
2017-11-29 19:01:38 STARTING ENGINE 1 62241
2017-11-29 19:01:38 STOPPING ENGINE 1 62241
2017-11-29 19:01:38 STARTING ENGINE 1 62241
2017-11-29 19:01:38 STOPPING ENGINE 1 62241
2017-11-29 19:01:39 STARTING ENGINE 1 62241
2017-11-29 19:01:39 STOPPING ENGINE 1 62241
2017-11-29 19:01:39 STARTING ENGINE 1 52241
2017-11-29 19:01:39 STOPPING ENGINE 1 52241
2017-11-29 19:01:39 STARTING ENGINE 1 52241
2017-11-29 19:01:39 STOPPING ENGINE 1 52241
2017-11-29 19:01:39 STARTING ENGINE 1 52241
2017-11-29 19:01:39 STOPPING ENGINE 1 52241
2017-11-29 19:01:39 STARTING ENGINE 1 62241
2017-11-29 19:01:40 STOPPING ENGINE 1 62241
2017-11-29 19:01:40 STARTING ENGINE 1 62241
2017-11-29 19:01:40 STOPPING ENGINE 1 62241
2017-11-29 19:01:40 STARTING ENGINE 1 62241
2017-11-29 19:01:40 STOPPING ENGINE 1 62241
2017-11-29 19:01:40 STARTING ENGINE 1 62241
2017-11-29 19:01:40 STOPPING ENGINE 1 62241
2017-11-29 19:01:40 STARTING ENGINE 1 62241
2017-11-29 19:01:40 STOPPING ENGINE 1 72241
2017-11-29 19:01:41 STARTING ENGINE 1 72241
2017-11-29 19:01:41 STOPPING ENGINE 1 72241
2017-11-29 19:01:41 STARTING ENGINE 1 72241
2017-11-29 19:01:41 STOPPING ENGINE 1 72241
2017-11-29 19:01:41 STARTING ENGINE 1 72241
2017-11-29 19:01:41 STOPPING ENGINE 1 72241
2017-11-29 19:01:41 STARTING ENGINE 1 72241
2017-11-29 19:01:41 STOPPING ENGINE 1 72241
2017-11-29 19:01:41 STARTING ENGINE 1 72241
2017-11-29 19:01:42 STOPPING ENGINE 1 72241
2017-11-29 19:01:42 STARTING ENGINE 1 72241
2017-11-29 19:01:42 STOPPING ENGINE 1 72241
2017-11-29 19:01:42 STARTING ENGINE 1 72241
2017-11-29 19:01:42 STOPPING ENGINE 1 72241
2017-11-29 19:01:42 STARTING ENGINE 1 72241
2017-11-29 19:01:42 STOPPING ENGINE 1 72241
2017-11-29 19:01:42 STARTING ENGINE 1 72241
2017-11-29 19:01:42 STOPPING ENGINE 1 72241
2017-11-29 19:01:43 STARTING ENGINE 1 72241
2017-11-29 19:01:43 STOPPING ENGINE 1 72241
2017-11-29 19:01:43 STARTING ENGINE 1 72241
2017-11-29 19:01:43 STOPPING ENGINE 1 72241
2017-11-29 19:01:43 STARTING ENGINE 1 72241
2017-11-29 19:01:43 STOPPING ENGINE 1 72241
2017-11-29 19:01:43 STARTING ENGINE 1 62241
2017-11-29 19:01:43 STOPPING ENGINE 1 62241
2017-11-29 19:01:43 STARTING ENGINE 1 62241
2017-11-29 19:01:43 STOPPING ENGINE 1 62241
2017-11-29 19:01:44 STARTING ENGINE 1 62241
2017-11-29 19:01:44 STOPPING ENGINE 1 52241
2017-11-29 19:01:44 STARTING ENGINE 1 52241
2017-11-29 19:01:44 STOPPING ENGINE 1 52241
2017-11-29 19:01:44 STARTING ENGINE 1 52241
2017-11-29 19:01:44 STOPPING ENGINE 1 42241
2017-11-29 19:01:44 STARTING ENGINE 1 42241
2017-11-29 19:01:44 STOPPING ENGINE 1 42241
2017-11-29 19:01:44 STARTING ENGINE 1 42241
2017-11-29 19:01:45 STOPPING ENGINE 1 42241
2017-11-29 19:01:45 STARTING ENGINE 1 42241
2017-11-29 19:01:45 STOPPING ENGINE 1 32241
2017-11-29 19:01:45 STARTING ENGINE 1 32241
2017-11-29 19:01:45 STOPPING ENGINE 1 32241
2017-11-29 19:01:45 STARTING ENGINE 1 32241
2017-11-29 19:01:45 STOPPING ENGINE 1 32241
2017-11-29 19:01:45 STARTING ENGINE 1 32241
2017-11-29 19:01:45 STOPPING ENGINE 1 32241
2017-11-29 19:01:46 STARTING ENGINE 1 32241
2017-11-29 19:01:46 STOPPING ENGINE 1 32241
2017-11-29 19:01:46 STARTING ENGINE 1 32241
2017-11-29 19:01:46 STOPPING ENGINE 1 32241
2017-11-29 19:01:46 STARTING ENGINE 1 32241
2017-11-29 19:01:46 STOPPING ENGINE 1 32241
2017-11-29 19:01:46 STARTING ENGINE 1 32241
2017-11-29 19:01:46 STOPPING ENGINE 1 32241
2017-11-29 19:01:46 STARTING ENGINE 1 32241
2017-11-29 19:01:47 STOPPING ENGINE 1 32241
2017-11-29 19:01:47 STARTING ENGINE 1 32241
2017-11-29 19:01:47 STOPPING ENGINE 1 32241
2017-11-29 19:01:47 STARTING ENGINE 1 32241
2017-11-29 19:01:47 STOPPING ENGINE 1 32241
2017-11-29 19:01:47 STARTING ENGINE 1 32241
2017-11-29 19:01:48 STOPPING ENGINE 1 42241
2017-11-29 19:01:48 STARTING ENGINE 1 52241
2017-11-29 19:01:48 STOPPING ENGINE 1 52241
2017-11-29 19:01:48 STARTING ENGINE 1 62241
2017-11-29 19:01:48 STOPPING ENGINE 1 62241
2017-11-29 19:01:48 STARTING ENGINE 1 62241
2017-11-29 19:01:48 STOPPING ENGINE 1 62241
2017-11-29 19:01:49 STARTING ENGINE 1 62241
2017-11-29 19:01:49 STOPPING ENGINE 1 72241
2017-11-29 19:01:49 STARTING ENGINE 1 72241
2017-11-29 19:01:49 STOPPING ENGINE 1 72241
2017-11-29 19:01:49 STARTING ENGINE 1 72241
2017-11-29 19:01:49 STOPPING ENGINE 1 72241
2017-11-29 19:01:49 STARTING ENGINE 1 72241
2017-11-29 19:01:49 STOPPING ENGINE 1 72241
2017-11-29 19:01:49 STARTING ENGINE 1 72241
2017-11-29 19:01:49 STOPPING ENGINE 1 72241
2017-11-29 19:01:50 STARTING ENGINE 1 72241
2017-11-29 19:01:50 STOPPING ENGINE 1 72241
2017-11-29 19:01:50 STARTING ENGINE 1 72241
2017-11-29 19:01:50 STOPPING ENGINE 1 72241
2017-11-29 19:01:50 STARTING ENGINE 1 72241
2017-11-29 19:01:50 STOPPING ENGINE 1 72241
2017-11-29 19:01:50 STARTING ENGINE 1 72241
2017-11-29 19:01:50 STOPPING ENGINE 1 72241
2017-11-29 19:01:50 STARTING ENGINE 1 72241
2017-11-29 19:01:51 STOPPING ENGINE 1 72241
2017-11-29 19:01:51 STARTING ENGINE 1 72241
2017-11-29 19:01:51 STOPPING ENGINE 1 72241
2017-11-29 19:01:51 STARTING ENGINE 1 72241
2017-11-29 19:01:51 STOPPING ENGINE 1 72241
2017-11-29 19:01:51 STARTING ENGINE 1 72241
2017-11-29 19:01:51 STOPPING ENGINE 1 72241
2017-11-29 19:01:51 STARTING ENGINE 1 72241
2017-11-29 19:01:51 STOPPING ENGINE 1 72241
2017-11-29 19:01:52 STARTING ENGINE 1 72241
2017-11-29 19:01:52 STOPPING ENGINE 1 72241
2017-11-29 19:01:52 STARTING ENGINE 1 72241
2017-11-29 19:01:52 STOPPING ENGINE 1 72241
2017-11-29 19:01:52 STARTING ENGINE 1 72241
2017-11-29 19:01:52 STOPPING ENGINE 1 72241
2017-11-29 19:01:52 STARTING ENGINE 1 72241
2017-11-29 19:01:52 STOPPING ENGINE 1 72241
2017-11-29 19:01:52 STARTING ENGINE 1 72241
2017-11-29 19:01:53 STOPPING ENGINE 1 72241
2017-11-29 19:01:53 STARTING ENGINE 1 72241
2017-11-29 19:01:53 STOPPING ENGINE 1 72241
2017-11-29 19:01:53 STARTING ENGINE 1 72241
2017-11-29 19:01:53 STOPPING ENGINE 1 72241
2017-11-29 19:01:53 STARTING ENGINE 1 72241
2017-11-29 19:01:53 STOPPING ENGINE 1 72241
2017-11-29 19:01:53 STARTING ENGINE 1 72241
2017-11-29 19:01:53 STOPPING ENGINE 1 72241
2017-11-29 19:01:54 STARTING ENGINE 1 72241
2017-11-29 19:01:54 STOPPING ENGINE 1 72241
2017-11-29 19:01:54 STARTING ENGINE 1 72241
2017-11-29 19:01:54 STOPPING ENGINE 1 72241
2017-11-29 19:01:54 STARTING ENGINE 1 72241
2017-11-29 19:01:54 STOPPING ENGINE 1 72241
2017-11-29 19:01:54 STARTING ENGINE 1 72241
2017-11-29 19:01:54 STOPPING ENGINE 1 72241
2017-11-29 19:01:54 STARTING ENGINE 1 72241
2017-11-29 19:01:55 STOPPING ENGINE 1 72241
2017-11-29 19:01:55 STARTING ENGINE 1 72241
2017-11-29 19:01:55 STOPPING ENGINE 1 72241
2017-11-29 19:01:55 STARTING ENGINE 1 72241
2017-11-29 19:01:55 STOPPING ENGINE 1 72241
2017-11-29 19:01:55 STARTING ENGINE 1 72241
2017-11-29 19:01:55 STOPPING ENGINE 1 72241
2017-11-29 19:01:55 STARTING ENGINE 1 72241
2017-11-29 19:01:55 STOPPING ENGINE 1 72241
2017-11-29 19:01:56 STARTING ENGINE 1 72241
2017-11-29 19:01:56 STOPPING ENGINE 1 72241
2017-11-29 19:01:56 STARTING ENGINE 1 72241
2017-11-29 19:01:56 STOPPING ENGINE 1 62241
2017-11-29 19:01:56 STARTING ENGINE 1 62241
2017-11-29 19:01:56 STOPPING ENGINE 1 62241
2017-11-29 19:01:56 STARTING ENGINE 1 62241
2017-11-29 19:01:56 STOPPING ENGINE 1 62241
2017-11-29 19:01:56 STARTING ENGINE 1 62241
2017-11-29 19:01:57 STOPPING ENGINE 1 62241
2017-11-29 19:01:57 STARTING ENGINE 1 62241
2017-11-29 19:01:57 STOPPING ENGINE 1 62241
2017-11-29 19:01:57 STARTING ENGINE 1 62241
2017-11-29 19:01:57 STOPPING ENGINE 1 62241
2017-11-29 19:01:57 STARTING ENGINE 1 62241
2017-11-29 19:01:57 STOPPING ENGINE 1 62241
2017-11-29 19:01:57 STARTING ENGINE 1 62241
2017-11-29 19:01:57 STOPPING ENGINE 1 62241
2017-11-29 19:01:57 STARTING ENGINE 1 62241
2017-11-29 19:01:58 STOPPING ENGINE 1 62241
2017-11-29 19:01:58 STARTING ENGINE 1 52241
2017-11-29 19:01:58 STOPPING ENGINE 1 52241
2017-11-29 19:01:58 STARTING ENGINE 1 52241
2017-11-29 19:01:58 STOPPING ENGINE 1 52241
2017-11-29 19:01:58 STARTING ENGINE 1 52241
2017-11-29 19:01:58 STOPPING ENGINE 1 52241
2017-11-29 19:01:58 STARTING ENGINE 1 52241
2017-11-29 19:01:58 STOPPING ENGINE 1 52241
2017-11-29 19:01:59 STARTING ENGINE 1 52241
2017-11-29 19:01:59 STOPPING ENGINE 1 52241
2017-11-29 19:01:59 STARTING ENGINE 1 52241
2017-11-29 19:01:59 STOPPING ENGINE 1 52241
2017-11-29 19:01:59 STARTING ENGINE 1 52241
2017-11-29 19:01:59 STOPPING ENGINE 1 52241
2017-11-29 19:01:59 STARTING ENGINE 1 42241
2017-11-29 19:01:59 STOPPING ENGINE 1 42241
2017-11-29 19:01:59 STARTING ENGINE 1 42241
2017-11-29 19:02:00 STOPPING ENGINE 1 52241
2017-11-29 19:02:00 STARTING ENGINE 1 52241
2017-11-29 19:02:00 STOPPING ENGINE 1 52241
2017-11-29 19:02:00 STARTING ENGINE 1 52241
2017-11-29 19:02:00 STOPPING ENGINE 1 52241
2017-11-29 19:02:00 STARTING ENGINE 1 52241
2017-11-29 19:02:00 STOPPING ENGINE 1 52241
2017-11-29 19:02:00 STARTING ENGINE 1 52241
2017-11-29 19:02:00 STOPPING ENGINE 1 52241
2017-11-29 19:02:01 STARTING ENGINE 1 52241
2017-11-29 19:02:01 STOPPING ENGINE 1 52241
2017-11-29 19:02:01 STARTING ENGINE 1 52241
2017-11-29 19:02:01 STOPPING ENGINE 1 62241
2017-11-29 19:02:01 STARTING ENGINE 1 62241
2017-11-29 19:02:01 STOPPING ENGINE 1 62241
2017-11-29 19:02:01 STARTING ENGINE 1 62241
2017-11-29 19:02:01 STOPPING ENGINE 1 62241
2017-11-29 19:02:01 STARTING ENGINE 1 62241
2017-11-29 19:02:29 STOPPING ENGINE 1 62241
2017-11-29 19:02:29 STARTING ENGINE 1 62241
2017-11-29 19:02:29 STOPPING ENGINE 1 62241
2017-11-29 19:02:29 STARTING ENGINE 1 62241
2017-11-29 19:02:30 STOPPING ENGINE 1 62241
2017-11-29 19:02:30 STARTING ENGINE 1 62241
2017-11-29 19:02:30 STOPPING ENGINE 1 62241
2017-11-29 19:02:30 STARTING ENGINE 1 62241
2017-11-29 19:02:30 STOPPING ENGINE 1 62241
2017-11-29 19:02:30 STARTING ENGINE 1 62241
2017-11-29 19:02:30 STOPPING ENGINE 1 72241
2017-11-29 19:02:30 STARTING ENGINE 1 72241
2017-11-29 19:02:30 STOPPING ENGINE 1 72241
2017-11-29 19:02:31 STARTING ENGINE 1 72241
2017-11-29 19:02:31 STOPPING ENGINE 1 72241
2017-11-29 19:02:31 STARTING ENGINE 1 72241
2017-11-29 19:02:31 STOPPING ENGINE 1 72241
2017-11-29 19:02:31 STARTING ENGINE 1 72241
2017-11-29 19:02:31 STOPPING ENGINE 1 72241
2017-11-29 19:02:31 STARTING ENGINE 1 72241
2017-11-29 19:02:31 STOPPING ENGINE 1 72241
2017-11-29 19:02:31 STARTING ENGINE 1 72241
2017-11-29 19:02:32 STOPPING ENGINE 1 72241
2017-11-29 19:02:32 STARTING ENGINE 1 72241
2017-11-29 19:02:32 STOPPING ENGINE 1 72241
2017-11-29 19:02:32 STARTING ENGINE 1 72241
2017-11-29 19:02:32 STOPPING ENGINE 1 72241
2017-11-29 19:02:32 STARTING ENGINE 1 72241
2017-11-29 19:02:32 STOPPING ENGINE 1 72241
2017-11-29 19:02:32 STARTING ENGINE 1 72241
2017-11-29 19:02:32 STOPPING ENGINE 1 72241
2017-11-29 19:02:32 STARTING ENGINE 1 72241
2017-11-29 19:02:33 STOPPING ENGINE 1 72241
2017-11-29 19:02:33 STARTING ENGINE 1 72241
2017-11-29 19:02:33 STOPPING ENGINE 1 72241
2017-11-29 19:02:33 STARTING ENGINE 1 72241
2017-11-29 19:02:33 STOPPING ENGINE 1 72241
2017-11-29 19:02:33 STARTING ENGINE 1 72241
2017-11-29 19:02:33 STOPPING ENGINE 1 72241
2017-11-29 19:02:33 STARTING ENGINE 1 72241
2017-11-29 19:02:34 STOPPING ENGINE 1 72241
2017-11-29 19:02:34 STARTING ENGINE 1 72241
2017-11-29 19:02:34 STOPPING ENGINE 1 72241
2017-11-29 19:02:34 STARTING ENGINE 1 72241
2017-11-29 19:02:34 STOPPING ENGINE 1 72241
2017-11-29 19:02:45 STARTING ENGINE 1 72241
2017-11-29 19:02:45 STOPPING ENGINE 1 72241
2017-11-29 19:02:45 STARTING ENGINE 1 72241
2017-11-29 19:02:45 STOPPING ENGINE 1 72241
2017-11-29 19:02:46 STARTING ENGINE 1 72241
2017-11-29 19:02:46 STOPPING ENGINE 1 72241
2017-11-29 19:02:46 STARTING ENGINE 1 72241
2017-11-29 19:02:46 STOPPING ENGINE 1 72241
2017-11-29 19:02:47 STARTING ENGINE 1 72241
2017-11-29 19:02:47 STOPPING ENGINE 1 72241
2017-11-29 19:02:47 STARTING ENGINE 1 72241
2017-11-29 19:02:47 STOPPING ENGINE 1 72241
2017-11-29 19:02:47 STARTING ENGINE 1 72241
2017-11-29 19:02:47 STOPPING ENGINE 1 72241
2017-11-29 19:02:47 STARTING ENGINE 1 72241
2017-11-29 19:02:47 STOPPING ENGINE 1 72241
2017-11-29 19:02:48 STARTING ENGINE 1 72241
2017-11-29 19:02:48 STOPPING ENGINE 1 72241
2017-11-29 19:02:48 STARTING ENGINE 1 72241
2017-11-29 19:02:48 STOPPING ENGINE 1 72241
2017-11-29 19:02:48 STARTING ENGINE 1 72241
2017-11-29 19:02:48 STOPPING ENGINE 1 72241
2017-11-29 19:02:48 STARTING ENGINE 1 72241
2017-11-29 19:02:48 STOPPING ENGINE 1 72241
2017-11-29 19:02:48 STARTING ENGINE 1 72241
2017-11-29 19:02:49 STOPPING ENGINE 1 72241
2017-11-29 19:02:49 STARTING ENGINE 1 62241
2017-11-29 19:02:49 STOPPING ENGINE 1 62241
2017-11-29 19:02:49 STARTING ENGINE 1 62241
2017-11-29 19:02:49 STOPPING ENGINE 1 62241
2017-11-29 19:02:49 STARTING ENGINE 1 62241
2017-11-29 19:02:49 STOPPING ENGINE 1 62241
2017-11-29 19:02:49 STARTING ENGINE 1 52241
2017-11-29 19:02:49 STOPPING ENGINE 1 52241
2017-11-29 19:02:50 STARTING ENGINE 1 52241
2017-11-29 19:02:50 STOPPING ENGINE 1 52241
2017-11-29 19:02:50 STARTING ENGINE 1 52241
2017-11-29 19:02:50 STOPPING ENGINE 1 52241
2017-11-29 19:02:50 STARTING ENGINE 1 52241
2017-11-29 19:02:51 STOPPING ENGINE 1 52241
2017-11-29 19:02:51 STARTING ENGINE 1 52241
2017-11-29 19:02:51 STOPPING ENGINE 1 52241
2017-11-29 19:02:51 STARTING ENGINE 1 52241
2017-11-29 19:02:51 STOPPING ENGINE 1 52241
2017-11-29 19:02:51 STARTING ENGINE 1 52241
2017-11-29 19:02:52 STOPPING ENGINE 1 52241
2017-11-29 19:02:52 STARTING ENGINE 1 52241
2017-11-29 19:02:52 STOPPING ENGINE 1 62241
2017-11-29 19:02:52 STARTING ENGINE 1 62241
2017-11-29 19:02:52 STOPPING ENGINE 1 62241
2017-11-29 19:02:52 STARTING ENGINE 1 62241
2017-11-29 19:02:53 STOPPING ENGINE 1 72241
2017-11-29 19:02:53 STARTING ENGINE 1 72241
2017-11-29 19:02:53 STOPPING ENGINE 1 72241
2017-11-29 19:02:53 STARTING ENGINE 1 72241
2017-11-29 19:02:53 STOPPING ENGINE 1 72241
2017-11-29 19:02:53 STARTING ENGINE 1 72241
2017-11-29 19:02:53 STOPPING ENGINE 1 72241
2017-11-29 19:02:53 STARTING ENGINE 1 72241
2017-11-29 19:02:54 STOPPING ENGINE 1 72241
2017-11-29 19:02:54 STARTING ENGINE 1 72241
2017-11-29 19:02:54 STOPPING ENGINE 1 72241
2017-11-29 19:02:54 STARTING ENGINE 1 72241
2017-11-29 19:02:54 STOPPING ENGINE 1 72241
2017-11-29 19:02:54 STARTING ENGINE 1 72241
2017-11-29 19:02:54 STOPPING ENGINE 1 72241
2017-11-29 19:02:55 STARTING ENGINE 1 72241
2017-11-29 19:02:55 STOPPING ENGINE 1 72241
2017-11-29 19:02:55 STARTING ENGINE 1 72241
2017-11-29 19:02:55 STOPPING ENGINE 1 72241
2017-11-29 19:02:55 STARTING ENGINE 1 72241
2017-11-29 19:02:55 STOPPING ENGINE 1 72241
2017-11-29 19:02:55 STARTING ENGINE 1 72241
2017-11-29 19:02:55 STOPPING ENGINE 1 72241
2017-11-29 19:02:55 STARTING ENGINE 1 72241
2017-11-29 19:02:56 STOPPING ENGINE 1 72241
2017-11-29 19:03:00 STARTING ENGINE 1 72241
2017-11-29 19:03:01 STOPPING ENGINE 1 72241
2017-11-29 19:03:01 STARTING ENGINE 1 72241
2017-11-29 19:03:01 STOPPING ENGINE 1 72241
2017-11-29 19:03:01 STARTING ENGINE 1 72241
2017-11-29 19:03:01 STOPPING ENGINE 1 72241
2017-11-29 19:03:01 STARTING ENGINE 1 72241
2017-11-29 19:03:01 STOPPING ENGINE 1 72241
2017-11-29 19:03:01 STARTING ENGINE 1 72241
2017-11-29 19:03:01 STOPPING ENGINE 1 72241
2017-11-29 19:03:02 STARTING ENGINE 1 72241
2017-11-29 19:03:02 STOPPING ENGINE 1 72241
2017-11-29 19:03:02 STARTING ENGINE 1 72241
2017-11-29 19:03:02 STOPPING ENGINE 1 62241
2017-11-29 19:03:02 STARTING ENGINE 1 62241
2017-11-29 19:03:02 STOPPING ENGINE 1 62241
2017-11-29 19:03:02 STARTING ENGINE 1 62241
2017-11-29 19:03:03 STOPPING ENGINE 1 62241
2017-11-29 19:03:03 STARTING ENGINE 1 62241
2017-11-29 19:03:03 STOPPING ENGINE 1 62241
2017-11-29 19:03:03 STARTING ENGINE 1 52241
2017-11-29 19:03:03 STOPPING ENGINE 1 52241
2017-11-29 19:03:03 STARTING ENGINE 1 52241
2017-11-29 19:03:03 STOPPING ENGINE 1 52241
2017-11-29 19:03:03 STARTING ENGINE 1 52241
2017-11-29 19:03:03 STOPPING ENGINE 1 52241
2017-11-29 19:03:04 STARTING ENGINE 1 52241
2017-11-29 19:03:04 STOPPING ENGINE 1 52241
2017-11-29 19:03:04 STARTING ENGINE 1 52241
2017-11-29 19:03:04 STOPPING ENGINE 1 52241
2017-11-29 19:03:04 STARTING ENGINE 1 52241
2017-11-29 19:03:04 STOPPING ENGINE 1 42241
2017-11-29 19:03:04 STARTING ENGINE 1 42241
2017-11-29 19:03:04 STOPPING ENGINE 1 42241
2017-11-29 19:03:04 STARTING ENGINE 1 42241
2017-11-29 19:03:05 STOPPING ENGINE 1 42241
2017-11-29 19:03:05 STARTING ENGINE 1 42241
2017-11-29 19:03:05 STOPPING ENGINE 1 42241
2017-11-29 19:03:05 STARTING ENGINE 1 42241
2017-11-29 19:03:05 STOPPING ENGINE 1 42241
2017-11-29 19:03:05 STARTING ENGINE 1 42241
2017-11-29 19:03:05 STOPPING ENGINE 1 42241
2017-11-29 19:03:05 STARTING ENGINE 1 42241
2017-11-29 19:03:05 STOPPING ENGINE 1 32241
2017-11-29 19:03:06 STARTING ENGINE 1 32241
2017-11-29 19:03:06 STOPPING ENGINE 1 32241
2017-11-29 19:03:06 STARTING ENGINE 1 32241
2017-11-29 19:03:06 STOPPING ENGINE 1 32241
2017-11-29 19:03:06 STARTING ENGINE 1 32241
2017-11-29 19:03:06 STOPPING ENGINE 1 32241
2017-11-29 19:03:06 STARTING ENGINE 1 32241
2017-11-29 19:03:06 STOPPING ENGINE 1 32241
2017-11-29 19:03:06 STARTING ENGINE 1 32241
2017-11-29 19:03:06 STOPPING ENGINE 1 32241
2017-11-29 19:03:07 STARTING ENGINE 1 32241
2017-11-29 19:03:07 STOPPING ENGINE 1 32241
2017-11-29 19:03:07 STARTING ENGINE 1 32241
2017-11-29 19:03:07 STOPPING ENGINE 1 32241
2017-11-29 19:03:07 STARTING ENGINE 1 32241
2017-11-29 19:03:07 STOPPING ENGINE 1 32241
2017-11-29 19:03:07 STARTING ENGINE 1 32241
2017-11-29 19:03:07 STOPPING ENGINE 1 32241
2017-11-29 19:03:07 STARTING ENGINE 1 32241
2017-11-29 19:03:08 STOPPING ENGINE 1 32241
2017-11-29 19:03:08 STARTING ENGINE 1 32241
2017-11-29 19:03:08 STOPPING ENGINE 1 32241
2017-11-29 19:03:08 STARTING ENGINE 1 32241
2017-11-29 19:03:08 STOPPING ENGINE 1 42241
2017-11-29 19:03:08 STARTING ENGINE 1 42241
2017-11-29 19:03:08 STOPPING ENGINE 1 42241
2017-11-29 19:03:08 STARTING ENGINE 1 42241
2017-11-29 19:03:08 STOPPING ENGINE 1 42241
2017-11-29 19:03:09 STARTING ENGINE 1 42241
2017-11-29 19:03:09 STOPPING ENGINE 1 42241
2017-11-29 19:03:09 STARTING ENGINE 1 42241
2017-11-29 19:03:09 STOPPING ENGINE 1 42241
2017-11-29 19:03:09 STARTING ENGINE 1 42241
2017-11-29 19:03:10 STOPPING ENGINE 1 62241
2017-11-29 19:03:10 STARTING ENGINE 1 62241
2017-11-29 19:03:10 STOPPING ENGINE 1 62241
2017-11-29 19:03:10 STARTING ENGINE 1 72241
2017-11-29 19:03:10 STOPPING ENGINE 1 72241
2017-11-29 19:03:11 STARTING ENGINE 1 72241
2017-11-29 19:03:11 STOPPING ENGINE 1 72241
2017-11-29 19:03:11 STARTING ENGINE 1 72241
2017-11-29 19:03:11 STOPPING ENGINE 1 72241
2017-11-29 19:03:11 STARTING ENGINE 1 72241
2017-11-29 19:03:11 STOPPING ENGINE 1 72241
2017-11-29 19:03:12 STARTING ENGINE 1 72241
2017-11-29 19:03:12 STOPPING ENGINE 1 62241
2017-11-29 19:03:12 STARTING ENGINE 1 62241
2017-11-29 19:03:12 STOPPING ENGINE 1 62241
2017-11-29 19:03:12 STARTING ENGINE 1 62241
2017-11-29 19:03:13 STOPPING ENGINE 1 52241
2017-11-29 19:03:13 STARTING ENGINE 1 42241
2017-11-29 19:03:13 STOPPING ENGINE 1 42241
2017-11-29 19:03:13 STARTING ENGINE 1 42241
2017-11-29 19:03:13 STOPPING ENGINE 1 42241
2017-11-29 19:03:13 STARTING ENGINE 1 42241
2017-11-29 19:03:13 STOPPING ENGINE 1 32241
2017-11-29 19:03:13 STARTING ENGINE 1 32241
2017-11-29 19:03:13 STOPPING ENGINE 1 32241
2017-11-29 19:03:13 STARTING ENGINE 1 32241
2017-11-29 19:03:14 STOPPING ENGINE 1 32241
2017-11-29 19:03:14 STARTING ENGINE 1 32241
2017-11-29 19:03:14 STOPPING ENGINE 1 32241
2017-11-29 19:03:14 STARTING ENGINE 1 32241
2017-11-29 19:03:14 STOPPING ENGINE 1 32241
2017-11-29 19:03:14 STARTING ENGINE 1 32241
2017-11-29 19:03:14 STOPPING ENGINE 1 32241
2017-11-29 19:03:14 STARTING ENGINE 1 32241
2017-11-29 19:03:14 STOPPING ENGINE 1 32241
2017-11-29 19:03:15 STARTING ENGINE 1 42241
2017-11-29 19:03:15 STOPPING ENGINE 1 42241
2017-11-29 19:03:15 STARTING ENGINE 1 42241
2017-11-29 19:03:15 STOPPING ENGINE 1 52241
2017-11-29 19:03:15 STARTING ENGINE 1 52241
2017-11-29 19:03:15 STOPPING ENGINE 1 52241
2017-11-29 19:03:15 STARTING ENGINE 1 62241
2017-11-29 19:03:15 STOPPING ENGINE 1 62241
2017-11-29 19:03:15 STARTING ENGINE 1 62241
2017-11-29 19:03:16 STOPPING ENGINE 1 62241
2017-11-29 19:03:16 STARTING ENGINE 1 62241
2017-11-29 19:03:16 STOPPING ENGINE 1 72241
2017-11-29 19:03:16 STARTING ENGINE 1 72241
2017-11-29 19:03:16 STOPPING ENGINE 1 72241
2017-11-29 19:03:16 STARTING ENGINE 1 72241
2017-11-29 19:03:16 STOPPING ENGINE 1 72241
2017-11-29 19:03:16 STARTING ENGINE 1 72241
2017-11-29 19:03:16 STOPPING ENGINE 1 72241
2017-11-29 19:03:17 STARTING ENGINE 1 72241
2017-11-29 19:03:17 STOPPING ENGINE 1 72241
2017-11-29 19:03:17 STARTING ENGINE 1 72241
2017-11-29 19:03:17 STOPPING ENGINE 1 72241
2017-11-29 19:03:17 STARTING ENGINE 1 72241
2017-11-29 19:03:17 STOPPING ENGINE 1 72241
2017-11-29 19:03:17 STARTING ENGINE 1 72241
2017-11-29 19:03:17 STOPPING ENGINE 1 72241
2017-11-29 19:03:17 STARTING ENGINE 1 72241
2017-11-29 19:03:18 STOPPING ENGINE 1 72241
2017-11-29 19:03:18 STARTING ENGINE 1 72241
2017-11-29 19:03:18 STOPPING ENGINE 1 72241
2017-11-29 19:03:18 STARTING ENGINE 1 72241
2017-11-29 19:03:18 STOPPING ENGINE 1 72241
2017-11-29 19:03:18 STARTING ENGINE 1 72241
2017-11-29 19:03:18 STOPPING ENGINE 1 72241
2017-11-29 19:03:18 STARTING ENGINE 1 72241
2017-11-29 19:03:18 STOPPING ENGINE 1 72241
2017-11-29 19:03:19 STARTING ENGINE 1 72241
2017-11-29 19:03:19 STOPPING ENGINE 1 72241
2017-11-29 19:03:19 STARTING ENGINE 1 72241
2017-11-29 19:03:19 STOPPING ENGINE 1 72241
2017-11-29 19:03:19 STARTING ENGINE 1 72241
2017-11-29 19:03:19 STOPPING ENGINE 1 72241
2017-11-29 19:03:19 STARTING ENGINE 1 72241
2017-11-29 19:03:19 STOPPING ENGINE 1 72241
2017-11-29 19:03:19 STARTING ENGINE 1 72241
2017-11-29 19:03:20 STOPPING ENGINE 1 72241
2017-11-29 19:03:20 STARTING ENGINE 1 62241
2017-11-29 19:03:20 STOPPING ENGINE 1 62241
2017-11-29 19:03:20 STARTING ENGINE 1 62241
2017-11-29 19:03:20 STOPPING ENGINE 1 62241
2017-11-29 19:03:20 STARTING ENGINE 1 52241
2017-11-29 19:03:20 STOPPING ENGINE 1 52241
2017-11-29 19:03:20 STARTING ENGINE 1 52241
2017-11-29 19:03:20 STOPPING ENGINE 1 42241
2017-11-29 19:03:21 STARTING ENGINE 1 42241
2017-11-29 19:03:21 STOPPING ENGINE 1 42241
2017-11-29 19:03:21 STARTING ENGINE 1 42241
2017-11-29 19:03:21 STOPPING ENGINE 1 32241
2017-11-29 19:03:21 STARTING ENGINE 1 32241
2017-11-29 19:03:21 STOPPING ENGINE 1 32241
2017-11-29 19:03:21 STARTING ENGINE 1 32241
2017-11-29 19:03:22 STOPPING ENGINE 1 32241
2017-11-29 19:03:22 STARTING ENGINE 1 22241
2017-11-29 19:03:22 STOPPING ENGINE 1 22241
2017-11-29 19:03:22 STARTING ENGINE 1 22241
2017-11-29 19:03:22 STOPPING ENGINE 1 22241
2017-11-29 19:03:23 STARTING ENGINE 1 22241
2017-11-29 19:03:23 STOPPING ENGINE 1 22241
2017-11-29 19:03:23 STARTING ENGINE 1 22241
2017-11-29 19:03:23 STOPPING ENGINE 1 22241
2017-11-29 19:03:24 STARTING ENGINE 1 22241
2017-11-29 19:03:24 STOPPING ENGINE 1 22241
2017-11-29 19:03:24 STARTING ENGINE 1 22241
2017-11-29 19:03:24 STOPPING ENGINE 1 22241
2017-11-29 19:03:25 STARTING ENGINE 1 22241
2017-11-29 19:03:25 STOPPING ENGINE 1 32241
2017-11-29 19:03:25 STARTING ENGINE 1 32241
2017-11-29 19:03:25 STOPPING ENGINE 1 42241
2017-11-29 19:03:25 STARTING ENGINE 1 42241
2017-11-29 19:03:25 STOPPING ENGINE 1 42241
2017-11-29 19:03:25 STARTING ENGINE 1 52241
2017-11-29 19:03:25 STOPPING ENGINE 1 52241
2017-11-29 19:03:26 STARTING ENGINE 1 52241
2017-11-29 19:03:26 STOPPING ENGINE 1 52241
2017-11-29 19:03:26 STARTING ENGINE 1 52241
2017-11-29 19:03:26 STOPPING ENGINE 1 52241
2017-11-29 19:03:26 STARTING ENGINE 1 52241
2017-11-29 19:03:26 STOPPING ENGINE 1 52241
2017-11-29 19:03:26 STARTING ENGINE 1 52241
2017-11-29 19:03:26 STOPPING ENGINE 1 52241
2017-11-29 19:03:26 STARTING ENGINE 1 52241
2017-11-29 19:03:27 STOPPING ENGINE 1 52241
2017-11-29 19:03:27 STARTING ENGINE 1 52241
2017-11-29 19:03:27 STOPPING ENGINE 1 62241
2017-11-29 19:03:27 STARTING ENGINE 1 62241
2017-11-29 19:03:28 STOPPING ENGINE 1 62241
2017-11-29 19:03:28 STARTING ENGINE 1 62241
2017-11-29 19:03:28 STOPPING ENGINE 1 62241
2017-11-29 19:03:28 STARTING ENGINE 1 52241
2017-11-29 19:03:29 STOPPING ENGINE 1 62241
2017-11-29 19:03:29 STARTING ENGINE 1 62241
2017-11-29 19:03:29 STOPPING ENGINE 1 62241
2017-11-29 19:03:29 STARTING ENGINE 1 62241
2017-11-29 19:03:29 STOPPING ENGINE 1 62241
2017-11-29 19:03:29 STARTING ENGINE 1 62241
2017-11-29 19:03:29 STOPPING ENGINE 1 62241
2017-11-29 19:03:29 STARTING ENGINE 1 62241
2017-11-29 19:03:29 STOPPING ENGINE 1 72241
2017-11-29 19:03:30 STARTING ENGINE 1 72241
2017-11-29 19:03:30 STOPPING ENGINE 1 62241
2017-11-29 19:03:30 STARTING ENGINE 1 62241
2017-11-29 19:03:30 STOPPING ENGINE 1 62241
2017-11-29 19:03:30 STARTING ENGINE 1 62241
2017-11-29 19:03:30 STOPPING ENGINE 1 62241
2017-11-29 19:03:30 STARTING ENGINE 1 62241
2017-11-29 19:03:30 STOPPING ENGINE 1 62241
2017-11-29 19:03:30 STARTING ENGINE 1 62241
2017-11-29 19:03:31 STOPPING ENGINE 1 62241
2017-11-29 19:03:31 STARTING ENGINE 1 72241
2017-11-29 19:03:31 STOPPING ENGINE 1 72241
2017-11-29 19:03:31 STARTING ENGINE 1 72241
2017-11-29 19:03:31 STOPPING ENGINE 1 72241
2017-11-29 19:03:31 STARTING ENGINE 1 72241
2017-11-29 19:03:31 STOPPING ENGINE 1 72241
2017-11-29 19:03:31 STARTING ENGINE 1 72241
2017-11-29 19:03:31 STOPPING ENGINE 1 62241
2017-11-29 19:03:32 STARTING ENGINE 1 62241
2017-11-29 19:03:32 STOPPING ENGINE 1 62241
2017-11-29 19:03:32 STARTING ENGINE 1 62241
2017-11-29 19:03:32 STOPPING ENGINE 1 62241
2017-11-29 19:03:32 STARTING ENGINE 1 52241
2017-11-29 19:03:32 STOPPING ENGINE 1 52241
2017-11-29 19:03:32 STARTING ENGINE 1 52241
2017-11-29 19:03:32 STOPPING ENGINE 1 42241
2017-11-29 19:03:32 STARTING ENGINE 1 42241
2017-11-29 19:03:33 STOPPING ENGINE 1 42241
2017-11-29 19:03:33 STARTING ENGINE 1 42241
2017-11-29 19:03:33 STOPPING ENGINE 1 42241
2017-11-29 19:03:33 STARTING ENGINE 1 32241
2017-11-29 19:03:33 STOPPING ENGINE 1 32241
2017-11-29 19:03:33 STARTING ENGINE 1 32241
2017-11-29 19:03:33 STOPPING ENGINE 1 32241
2017-11-29 19:03:33 STARTING ENGINE 1 32241
2017-11-29 19:03:33 STOPPING ENGINE 1 32241
2017-11-29 19:03:34 STARTING ENGINE 1 32241
2017-11-29 19:03:34 STOPPING ENGINE 1 32241
2017-11-29 19:03:34 STARTING ENGINE 1 32241
2017-11-29 19:03:34 STOPPING ENGINE 1 32241
2017-11-29 19:03:34 STARTING ENGINE 1 42241
2017-11-29 19:03:34 STOPPING ENGINE 1 42241
2017-11-29 19:03:34 STARTING ENGINE 1 42241
2017-11-29 19:03:34 STOPPING ENGINE 1 42241
2017-11-29 19:03:34 STARTING ENGINE 1 42241
2017-11-29 19:03:34 STOPPING ENGINE 1 42241
2017-11-29 19:03:35 STARTING ENGINE 1 42241
2017-11-29 19:03:35 STOPPING ENGINE 1 42241
2017-11-29 19:03:35 STARTING ENGINE 1 42241
2017-11-29 19:03:35 STOPPING ENGINE 1 42241
2017-11-29 19:03:35 STARTING ENGINE 1 42241
2017-11-29 19:03:35 STOPPING ENGINE 1 42241
2017-11-29 19:03:35 STARTING ENGINE 1 42241
2017-11-29 19:03:35 STOPPING ENGINE 1 52241
2017-11-29 19:03:35 STARTING ENGINE 1 52241
2017-11-29 19:03:36 STOPPING ENGINE 1 52241
2017-11-29 19:03:36 STARTING ENGINE 1 52241
2017-11-29 19:03:36 STOPPING ENGINE 1 52241
2017-11-29 19:03:36 STARTING ENGINE 1 52241
2017-11-29 19:03:36 STOPPING ENGINE 1 52241
2017-11-29 19:03:36 STARTING ENGINE 1 52241
2017-11-29 19:03:36 STOPPING ENGINE 1 62241
2017-11-29 19:03:36 STARTING ENGINE 1 62241
2017-11-29 19:03:36 STOPPING ENGINE 1 62241
2017-11-29 19:03:37 STARTING ENGINE 1 62241
2017-11-29 19:03:37 STOPPING ENGINE 1 62241
2017-11-29 19:03:37 STARTING ENGINE 1 62241
2017-11-29 19:03:37 STOPPING ENGINE 1 62241
2017-11-29 19:03:37 STARTING ENGINE 1 62241
2017-11-29 19:03:37 STOPPING ENGINE 1 62241
2017-11-29 19:03:37 STARTING ENGINE 1 62241
2017-11-29 19:03:37 STOPPING ENGINE 1 62241
2017-11-29 19:03:37 STARTING ENGINE 1 62241
2017-11-29 19:03:38 STOPPING ENGINE 1 62241
2017-11-29 19:03:38 STARTING ENGINE 1 62241
2017-11-29 19:03:38 STOPPING ENGINE 1 52241
2017-11-29 19:03:38 STARTING ENGINE 1 52241
2017-11-29 19:03:38 STOPPING ENGINE 1 52241
2017-11-29 19:03:38 STARTING ENGINE 1 52241
2017-11-29 19:03:38 STOPPING ENGINE 1 52241
2017-11-29 19:03:38 STARTING ENGINE 1 52241
2017-11-29 19:03:38 STOPPING ENGINE 1 52241
2017-11-29 19:03:39 STARTING ENGINE 1 42241
2017-11-29 19:03:39 STOPPING ENGINE 1 42241
2017-11-29 19:03:39 STARTING ENGINE 1 42241
2017-11-29 19:03:39 STOPPING ENGINE 1 42241
2017-11-29 19:03:39 STARTING ENGINE 1 42241
2017-11-29 19:03:39 STOPPING ENGINE 1 42241
2017-11-29 19:03:39 STARTING ENGINE 1 42241
2017-11-29 19:03:39 STOPPING ENGINE 1 42241
2017-11-29 19:03:39 STARTING ENGINE 1 42241
2017-11-29 19:03:40 STOPPING ENGINE 1 42241
2017-11-29 19:03:40 STARTING ENGINE 1 42241
2017-11-29 19:03:40 STOPPING ENGINE 1 42241
2017-11-29 19:03:40 STARTING ENGINE 1 42241
2017-11-29 19:03:40 STOPPING ENGINE 1 42241
2017-11-29 19:03:40 STARTING ENGINE 1 52241
2017-11-29 19:03:40 STOPPING ENGINE 1 52241
2017-11-29 19:03:40 STARTING ENGINE 1 52241
2017-11-29 19:03:40 STOPPING ENGINE 1 52241
2017-11-29 19:03:41 STARTING ENGINE 1 52241
2017-11-29 19:03:41 STOPPING ENGINE 1 52241
2017-11-29 19:03:41 STARTING ENGINE 1 62241
2017-11-29 19:03:41 STOPPING ENGINE 1 62241
2017-11-29 19:03:41 STARTING ENGINE 1 62241
2017-11-29 19:03:41 STOPPING ENGINE 1 62241
2017-11-29 19:03:42 STARTING ENGINE 1 62241
2017-11-29 19:03:42 STOPPING ENGINE 1 62241
2017-11-29 19:03:42 STARTING ENGINE 1 62241
2017-11-29 19:03:42 STOPPING ENGINE 1 62241
2017-11-29 19:03:42 STARTING ENGINE 1 72241
2017-11-29 19:03:42 STOPPING ENGINE 1 72241
2017-11-29 19:03:42 STARTING ENGINE 1 72241
2017-11-29 19:03:42 STOPPING ENGINE 1 72241
2017-11-29 19:03:43 STARTING ENGINE 1 72241
2017-11-29 19:03:43 STOPPING ENGINE 1 72241
2017-11-29 19:03:43 STARTING ENGINE 1 72241
2017-11-29 19:03:43 STOPPING ENGINE 1 72241
2017-11-29 19:03:43 STARTING ENGINE 1 72241
2017-11-29 19:03:43 STOPPING ENGINE 1 72241
2017-11-29 19:03:43 STARTING ENGINE 1 72241
2017-11-29 19:03:43 STOPPING ENGINE 1 72241
2017-11-29 19:03:43 STARTING ENGINE 1 72241
2017-11-29 19:03:44 STOPPING ENGINE 1 72241
2017-11-29 19:03:44 STARTING ENGINE 1 72241
2017-11-29 19:03:44 STOPPING ENGINE 1 72241
2017-11-29 19:03:44 STARTING ENGINE 1 72241
2017-11-29 19:03:44 STOPPING ENGINE 1 72241
2017-11-29 19:03:44 STARTING ENGINE 1 62241
2017-11-29 19:03:44 STOPPING ENGINE 1 62241
2017-11-29 19:03:44 STARTING ENGINE 1 62241
2017-11-29 19:03:44 STOPPING ENGINE 1 62241
2017-11-29 19:03:45 STARTING ENGINE 1 62241
2017-11-29 19:03:45 STOPPING ENGINE 1 52241
2017-11-29 19:03:45 STARTING ENGINE 1 52241
2017-11-29 19:03:45 STOPPING ENGINE 1 52241
2017-11-29 19:03:45 STARTING ENGINE 1 52241
2017-11-29 19:03:45 STOPPING ENGINE 1 52241
2017-11-29 19:03:45 STARTING ENGINE 1 52241
2017-11-29 19:03:45 STOPPING ENGINE 1 42241
2017-11-29 19:03:45 STARTING ENGINE 1 42241
2017-11-29 19:03:46 STOPPING ENGINE 1 42241
2017-11-29 19:03:46 STARTING ENGINE 1 42241
2017-11-29 19:03:46 STOPPING ENGINE 1 42241
2017-11-29 19:03:46 STARTING ENGINE 1 42241
2017-11-29 19:03:46 STOPPING ENGINE 1 42241
2017-11-29 19:03:46 STARTING ENGINE 1 42241
2017-11-29 19:03:46 STOPPING ENGINE 1 42241
2017-11-29 19:03:46 STARTING ENGINE 1 42241
2017-11-29 19:03:46 STOPPING ENGINE 1 42241
2017-11-29 19:03:47 STARTING ENGINE 1 42241
2017-11-29 19:03:47 STOPPING ENGINE 1 62241
2017-11-29 19:03:47 STARTING ENGINE 1 62241
2017-11-29 19:03:48 STOPPING ENGINE 1 72241
2017-11-29 19:03:48 STARTING ENGINE 1 72241
2017-11-29 19:03:49 STOPPING ENGINE 1 72241
2017-11-29 19:03:49 STARTING ENGINE 1 72241
2017-11-29 19:03:49 STOPPING ENGINE 1 72241
2017-11-29 19:03:50 STARTING ENGINE 1 72241
2017-11-29 19:03:50 STOPPING ENGINE 1 72241
2017-11-29 19:03:50 STARTING ENGINE 1 72241
2017-11-29 19:03:51 STOPPING ENGINE 1 72241
2017-11-29 19:03:51 STARTING ENGINE 1 72241
2017-11-29 19:03:52 STOPPING ENGINE 1 72241
2017-11-29 19:03:52 STARTING ENGINE 1 72241
2017-11-29 19:03:53 STOPPING ENGINE 1 62241
2017-11-29 19:03:53 STARTING ENGINE 1 62241
2017-11-29 19:03:53 STOPPING ENGINE 1 72241
2017-11-29 19:03:53 STARTING ENGINE 1 72241
2017-11-29 19:03:54 STOPPING ENGINE 1 72241
2017-11-29 19:03:54 STARTING ENGINE 1 72241
2017-11-29 19:03:55 STOPPING ENGINE 1 72241
2017-11-29 19:03:55 STARTING ENGINE 1 72241
2017-11-29 19:03:55 STOPPING ENGINE 1 72241
2017-11-29 19:03:56 STARTING ENGINE 1 72241
2017-11-29 19:03:56 STOPPING ENGINE 1 72241
2017-11-29 19:03:56 STARTING ENGINE 1 62241
2017-11-29 19:03:57 STOPPING ENGINE 1 52241
2017-11-29 19:03:57 STARTING ENGINE 1 52241
2017-11-29 19:03:58 STOPPING ENGINE 1 52241
2017-11-29 19:03:58 STARTING ENGINE 1 52241
2017-11-29 19:03:59 STOPPING ENGINE 1 72241
2017-11-29 19:03:59 STARTING ENGINE 1 72241
2017-11-29 19:03:59 STOPPING ENGINE 1 72241
2017-11-29 19:03:59 STARTING ENGINE 1 72241
2017-11-29 19:04:00 STOPPING ENGINE 1 72241
2017-11-29 19:04:00 STARTING ENGINE 1 72241
2017-11-29 19:04:01 STOPPING ENGINE 1 72241
2017-11-29 19:04:01 STARTING ENGINE 1 72241
2017-11-29 19:04:02 STOPPING ENGINE 1 72241
2017-11-29 19:04:02 STARTING ENGINE 1 72241
2017-11-29 19:04:02 STOPPING ENGINE 1 62241
2017-11-29 19:04:02 STARTING ENGINE 1 62241
2017-11-29 19:04:03 STOPPING ENGINE 1 42241
2017-11-29 19:04:03 STARTING ENGINE 1 42241
2017-11-29 19:04:04 STOPPING ENGINE 1 32241
2017-11-29 19:04:04 STARTING ENGINE 1 32241
2017-11-29 19:04:05 STOPPING ENGINE 1 42241
2017-11-29 19:04:05 STARTING ENGINE 1 52241
2017-11-29 19:04:05 STOPPING ENGINE 1 52241
2017-11-29 19:04:06 STARTING ENGINE 1 52241
2017-11-29 19:04:06 STOPPING ENGINE 1 52241
2017-11-29 19:04:06 STARTING ENGINE 1 52241
2017-11-29 19:04:07 STOPPING ENGINE 1 42241
2017-11-29 19:04:07 STARTING ENGINE 1 42241
2017-11-29 19:04:08 STOPPING ENGINE 1 42241
2017-11-29 19:04:08 STARTING ENGINE 1 42241
2017-11-29 19:04:08 STOPPING ENGINE 1 42241
2017-11-29 19:04:09 STARTING ENGINE 1 42241
2017-11-29 19:04:09 STOPPING ENGINE 1 52241
2017-11-29 19:04:09 STARTING ENGINE 1 52241
2017-11-29 19:04:10 STOPPING ENGINE 1 62241
2017-11-29 19:04:10 STARTING ENGINE 1 62241
2017-11-29 19:04:11 STOPPING ENGINE 1 72241
2017-11-29 19:04:11 STARTING ENGINE 1 72241
2017-11-29 19:04:11 STOPPING ENGINE 1 62241
2017-11-29 19:04:12 STARTING ENGINE 1 62241
2017-11-29 19:04:12 STOPPING ENGINE 1 52241
2017-11-29 19:04:12 STARTING ENGINE 1 52241
2017-11-29 19:04:13 STOPPING ENGINE 1 62241
2017-11-29 19:04:13 STARTING ENGINE 1 62241
2017-11-29 19:04:14 STOPPING ENGINE 1 72241
2017-11-29 19:04:14 STARTING ENGINE 1 72241
2017-11-29 19:04:15 STOPPING ENGINE 1 72241
2017-11-29 19:04:15 STARTING ENGINE 1 72241
2017-11-29 19:04:15 STOPPING ENGINE 1 72241
2017-11-29 19:04:15 STARTING ENGINE 1 72241
2017-11-29 19:04:16 STOPPING ENGINE 1 72241
2017-11-29 19:04:16 STARTING ENGINE 1 62241
2017-11-29 19:04:17 STOPPING ENGINE 1 52241
2017-11-29 19:04:17 STARTING ENGINE 1 52241
2017-11-29 19:04:18 STOPPING ENGINE 1 62241
2017-11-29 19:04:18 STARTING ENGINE 1 62241
2017-11-29 19:04:18 STOPPING ENGINE 1 72241
2017-11-29 19:04:18 STARTING ENGINE 1 72241
2017-11-29 19:04:19 STOPPING ENGINE 1 72241
2017-11-29 19:04:19 STARTING ENGINE 1 72241
2017-11-29 19:04:20 STOPPING ENGINE 1 72241
2017-11-29 19:04:20 STARTING ENGINE 1 72241
2017-11-29 19:04:21 STOPPING ENGINE 1 72241
2017-11-29 19:04:21 STARTING ENGINE 1 72241
2017-11-29 19:04:22 STOPPING ENGINE 1 72241
2017-11-29 19:04:22 STARTING ENGINE 1 72241
2017-11-29 19:04:23 STOPPING ENGINE 1 62241
2017-11-29 19:04:23 STARTING ENGINE 1 62241
2017-11-29 19:04:24 STOPPING ENGINE 1 62241
2017-11-29 19:04:24 STARTING ENGINE 1 62241
2017-11-29 19:04:24 STOPPING ENGINE 1 62241
2017-11-29 19:04:24 STARTING ENGINE 1 62241
2017-11-29 19:04:25 STOPPING ENGINE 1 62241
2017-11-29 19:04:25 STARTING ENGINE 1 62241
2017-11-29 19:04:26 STOPPING ENGINE 1 72241
2017-11-29 19:04:26 STARTING ENGINE 1 72241
2017-11-29 19:04:27 STOPPING ENGINE 1 72241
2017-11-29 19:04:27 STARTING ENGINE 1 72241
2017-11-29 19:04:27 STOPPING ENGINE 1 62241
2017-11-29 19:04:28 STARTING ENGINE 1 62241
2017-11-29 19:04:28 STOPPING ENGINE 1 62241
2017-11-29 19:04:28 STARTING ENGINE 1 62241
2017-11-29 19:04:29 STOPPING ENGINE 1 62241
2017-11-29 19:04:29 STARTING ENGINE 1 62241
2017-11-29 19:04:30 STOPPING ENGINE 1 52241
2017-11-29 19:04:30 STARTING ENGINE 1 52241
2017-11-29 19:04:31 STOPPING ENGINE 1 42241
2017-11-29 19:04:31 STARTING ENGINE 1 32241
2017-11-29 19:04:31 STOPPING ENGINE 1 32241
2017-11-29 19:04:31 STARTING ENGINE 1 32241
2017-11-29 19:04:32 STOPPING ENGINE 1 52241
2017-11-29 19:04:32 STARTING ENGINE 1 52241
2017-11-29 19:04:33 STOPPING ENGINE 1 62241
2017-11-29 19:04:33 STARTING ENGINE 1 62241
2017-11-29 19:04:34 STOPPING ENGINE 1 72241
2017-11-29 19:04:34 STARTING ENGINE 1 72241
2017-11-29 19:04:35 STOPPING ENGINE 1 72241
2017-11-29 19:04:35 STARTING ENGINE 1 72241
2017-11-29 19:04:35 STOPPING ENGINE 1 72241
2017-11-29 19:04:35 STARTING ENGINE 1 72241
2017-11-29 19:04:36 STOPPING ENGINE 1 62241
2017-11-29 19:04:36 STARTING ENGINE 1 62241
2017-11-29 19:04:37 STOPPING ENGINE 1 72241
2017-11-29 19:04:37 STARTING ENGINE 1 72241
2017-11-29 19:04:38 STOPPING ENGINE 1 72241
2017-11-29 19:04:38 STARTING ENGINE 1 72241
2017-11-29 19:04:39 STOPPING ENGINE 1 72241
2017-11-29 19:04:39 STARTING ENGINE 1 72241
2017-11-29 19:04:39 STOPPING ENGINE 1 72241
2017-11-29 19:04:39 STARTING ENGINE 1 72241
2017-11-29 19:04:40 STOPPING ENGINE 1 72241
2017-11-29 19:04:40 STARTING ENGINE 1 72241
2017-11-29 19:04:41 STOPPING ENGINE 1 72241
2017-11-29 19:04:41 STARTING ENGINE 1 72241
2017-11-29 19:04:42 STOPPING ENGINE 1 72241
2017-11-29 19:04:42 STARTING ENGINE 1 72241
2017-11-29 19:04:43 STOPPING ENGINE 1 72241
2017-11-29 19:04:43 STARTING ENGINE 1 72241
2017-11-29 19:04:43 STOPPING ENGINE 1 72241
2017-11-29 19:04:44 STARTING ENGINE 1 72241
2017-11-29 19:04:44 STOPPING ENGINE 1 62241
2017-11-29 19:04:44 STARTING ENGINE 1 62241
2017-11-29 19:04:45 STOPPING ENGINE 1 62241
2017-11-29 19:04:45 STARTING ENGINE 1 62241
2017-11-29 19:04:46 STOPPING ENGINE 1 72241
2017-11-29 19:04:46 STARTING ENGINE 1 72241
2017-11-29 19:04:47 STOPPING ENGINE 1 72241
2017-11-29 19:04:47 STARTING ENGINE 1 72241
2017-11-29 19:04:47 STOPPING ENGINE 1 72241
2017-11-29 19:04:48 STARTING ENGINE 1 72241
2017-11-29 19:04:48 STOPPING ENGINE 1 72241
2017-11-29 19:04:48 STARTING ENGINE 1 72241
2017-11-29 19:04:49 STOPPING ENGINE 1 72241
2017-11-29 19:04:49 STARTING ENGINE 1 72241
2017-11-29 19:04:50 STOPPING ENGINE 1 72241
2017-11-29 19:04:50 STARTING ENGINE 1 72241
2017-11-29 19:04:51 STOPPING ENGINE 1 72241
2017-11-29 19:04:51 STARTING ENGINE 1 72241
2017-11-29 19:04:51 STOPPING ENGINE 1 72241
2017-11-29 19:04:52 STARTING ENGINE 1 72241
2017-11-29 19:04:52 STOPPING ENGINE 1 72241
2017-11-29 19:04:52 STARTING ENGINE 1 72241
2017-11-29 19:04:53 STOPPING ENGINE 1 52241
2017-11-29 19:04:53 STARTING ENGINE 1 52241
2017-11-29 19:04:54 STOPPING ENGINE 1 52241
2017-11-29 19:04:54 STARTING ENGINE 1 62241
2017-11-29 19:04:55 STOPPING ENGINE 1 62241
2017-11-29 19:04:55 STARTING ENGINE 1 62241
2017-11-29 19:04:56 STOPPING ENGINE 1 62241
2017-11-29 19:04:56 STARTING ENGINE 1 62241
2017-11-29 19:04:56 STOPPING ENGINE 1 62241
2017-11-29 19:04:56 STARTING ENGINE 1 62241
2017-11-29 19:04:57 STOPPING ENGINE 1 62241
2017-11-29 19:04:57 STARTING ENGINE 1 62241
2017-11-29 19:04:58 STOPPING ENGINE 1 62241
2017-11-29 19:04:58 STARTING ENGINE 1 62241
2017-11-29 19:04:59 STOPPING ENGINE 1 62241
2017-11-29 19:04:59 STARTING ENGINE 1 62241
2017-11-29 19:04:59 STOPPING ENGINE 1 62241
2017-11-29 19:05:00 STARTING ENGINE 1 62241
2017-11-29 19:05:00 STOPPING ENGINE 1 62241
2017-11-29 19:05:00 STARTING ENGINE 1 62241
2017-11-29 19:05:01 STOPPING ENGINE 1 72241
2017-11-29 19:05:01 STARTING ENGINE 1 72241
2017-11-29 19:05:02 STOPPING ENGINE 1 72241
2017-11-29 19:05:02 STARTING ENGINE 1 72241
2017-11-29 19:05:03 STOPPING ENGINE 1 72241
2017-11-29 19:05:03 STARTING ENGINE 1 72241
2017-11-29 19:05:04 STOPPING ENGINE 1 72241
2017-11-29 19:05:04 STARTING ENGINE 1 72241
2017-11-29 19:05:04 STOPPING ENGINE 1 72241
2017-11-29 19:05:04 STARTING ENGINE 1 72241
2017-11-29 19:05:05 STOPPING ENGINE 1 62241
2017-11-29 19:05:05 STARTING ENGINE 1 62241
2017-11-29 19:05:06 STOPPING ENGINE 1 62241
2017-11-29 19:05:06 STARTING ENGINE 1 62241
2017-11-29 19:05:07 STOPPING ENGINE 1 62241
2017-11-29 19:05:07 STARTING ENGINE 1 62241
2017-11-29 19:05:08 STOPPING ENGINE 1 72241
2017-11-29 19:05:08 STARTING ENGINE 1 72241
2017-11-29 19:05:08 STOPPING ENGINE 1 72241
2017-11-29 19:05:08 STARTING ENGINE 1 72241
2017-11-29 19:05:09 STOPPING ENGINE 1 62241
2017-11-29 19:05:09 STARTING ENGINE 1 62241
2017-11-29 19:05:10 STOPPING ENGINE 1 72241
2017-11-29 19:05:10 STARTING ENGINE 1 72241
2017-11-29 19:05:11 STOPPING ENGINE 1 72241
2017-11-29 19:05:11 STARTING ENGINE 1 72241
2017-11-29 19:05:12 STOPPING ENGINE 1 62241
2017-11-29 19:05:12 STARTING ENGINE 1 62241
2017-11-29 19:05:12 STOPPING ENGINE 1 72241
2017-11-29 19:05:12 STARTING ENGINE 1 72241
2017-11-29 19:05:13 STOPPING ENGINE 1 72241
2017-11-29 19:05:13 STARTING ENGINE 1 72241
2017-11-29 19:05:14 STOPPING ENGINE 1 72241
2017-11-29 19:05:14 STARTING ENGINE 1 72241
2017-11-29 19:05:15 STOPPING ENGINE 1 72241
2017-11-29 19:05:15 STARTING ENGINE 1 72241
2017-11-29 19:05:15 STOPPING ENGINE 1 62241
2017-11-29 19:05:16 STARTING ENGINE 1 62241
2017-11-29 19:05:17 STOPPING ENGINE 1 62241
2017-11-29 19:05:17 STARTING ENGINE 1 62241
2017-11-29 19:05:18 STOPPING ENGINE 1 62241
2017-11-29 19:05:18 STARTING ENGINE 1 62241
2017-11-29 19:05:18 STOPPING ENGINE 1 52241
2017-11-29 19:05:19 STARTING ENGINE 1 52241
2017-11-29 19:05:19 STOPPING ENGINE 1 52241
2017-11-29 19:05:19 STARTING ENGINE 1 52241
2017-11-29 19:05:20 STOPPING ENGINE 1 62241
2017-11-29 19:05:20 STARTING ENGINE 1 62241
2017-11-29 19:05:21 STOPPING ENGINE 1 62241
2017-11-29 19:05:21 STARTING ENGINE 1 62241
2017-11-29 19:05:21 STOPPING ENGINE 1 62241
2017-11-29 19:05:21 STARTING ENGINE 1 62241
2017-11-29 19:05:22 STOPPING ENGINE 1 62241
2017-11-29 19:05:22 STARTING ENGINE 1 62241
2017-11-29 19:05:23 STOPPING ENGINE 1 62241
2017-11-29 19:05:23 STARTING ENGINE 1 62241
2017-11-29 19:05:24 STOPPING ENGINE 1 62241
2017-11-29 19:05:24 STARTING ENGINE 1 62241
2017-11-29 19:05:24 STOPPING ENGINE 1 72241
2017-11-29 19:05:24 STARTING ENGINE 1 72241
2017-11-29 19:05:26 STOPPING ENGINE 1 72241
2017-11-29 19:05:26 STARTING ENGINE 1 72241
2017-11-29 19:05:27 STOPPING ENGINE 1 72241
2017-11-29 19:05:27 STARTING ENGINE 1 72241
2017-11-29 19:05:27 STOPPING ENGINE 1 72241
2017-11-29 19:05:27 STARTING ENGINE 1 72241
2017-11-29 19:05:28 STOPPING ENGINE 1 72241
2017-11-29 19:05:28 STARTING ENGINE 1 72241
2017-11-29 19:05:29 STOPPING ENGINE 1 72241
2017-11-29 19:05:29 STARTING ENGINE 1 72241
2017-11-29 19:05:29 STOPPING ENGINE 1 72241
2017-11-29 19:05:30 STARTING ENGINE 1 72241
2017-11-29 19:05:30 STOPPING ENGINE 1 72241
2017-11-29 19:05:30 STARTING ENGINE 1 72241
2017-11-29 19:05:31 STOPPING ENGINE 1 72241
2017-11-29 19:05:31 STARTING ENGINE 1 72241
2017-11-29 19:05:32 STOPPING ENGINE 1 72241
2017-11-29 19:05:32 STARTING ENGINE 1 72241
2017-11-29 19:05:32 STOPPING ENGINE 1 72241
2017-11-29 19:05:33 STARTING ENGINE 1 72241
2017-11-29 19:05:34 STOPPING ENGINE 1 42241
2017-11-29 19:05:34 STARTING ENGINE 1 42241
2017-11-29 19:05:35 STOPPING ENGINE 1 42241
2017-11-29 19:05:35 STARTING ENGINE 1 42241
2017-11-29 19:05:35 STOPPING ENGINE 1 32241
2017-11-29 19:05:35 STARTING ENGINE 1 32241
2017-11-29 19:05:36 STOPPING ENGINE 1 32241
2017-11-29 19:05:36 STARTING ENGINE 1 32241
2017-11-29 19:05:37 STOPPING ENGINE 1 42241
2017-11-29 19:05:37 STARTING ENGINE 1 42241
2017-11-29 19:05:42 STOPPING ENGINE 1 32241
2017-11-29 19:05:42 STARTING ENGINE 1 32241
2017-11-29 19:05:43 STOPPING ENGINE 1 32241
2017-11-29 19:05:43 STARTING ENGINE 1 32241
2017-11-29 19:05:45 STOPPING ENGINE 1 32241
2017-11-29 19:05:45 STARTING ENGINE 1 32241
2017-11-29 19:05:46 STOPPING ENGINE 1 42241
2017-11-29 19:05:46 STARTING ENGINE 1 42241
2017-11-29 19:05:46 STOPPING ENGINE 1 42241
2017-11-29 19:05:46 STARTING ENGINE 1 42241
2017-11-29 19:05:47 STOPPING ENGINE 1 42241
2017-11-29 19:05:47 STARTING ENGINE 1 42241
2017-11-29 19:05:47 STOPPING ENGINE 1 52241
2017-11-29 19:05:47 STARTING ENGINE 1 52241
2017-11-29 19:05:48 STOPPING ENGINE 1 62241
2017-11-29 19:05:48 STARTING ENGINE 1 62241
2017-11-29 19:05:48 STOPPING ENGINE 1 62241
2017-11-29 19:05:48 STARTING ENGINE 1 62241
2017-11-29 19:05:49 STOPPING ENGINE 1 72241
2017-11-29 19:05:49 STARTING ENGINE 1 72241
2017-11-29 19:05:49 STOPPING ENGINE 1 72241
2017-11-29 19:05:49 STARTING ENGINE 1 72241
2017-11-29 19:05:50 STOPPING ENGINE 1 72241
2017-11-29 19:05:50 STARTING ENGINE 1 72241
2017-11-29 19:05:51 STOPPING ENGINE 1 52241
2017-11-29 19:05:51 STARTING ENGINE 1 42241
2017-11-29 19:05:53 STOPPING ENGINE 1 52241
2017-11-29 19:05:53 STARTING ENGINE 1 52241
2017-11-29 19:05:58 STOPPING ENGINE 1 72241
2017-11-29 19:05:59 STARTING ENGINE 1 72241
2017-11-29 19:06:00 STOPPING ENGINE 1 72241
2017-11-29 19:06:00 STARTING ENGINE 1 72241
2017-11-29 19:06:01 STOPPING ENGINE 1 72241
2017-11-29 19:06:01 STARTING ENGINE 1 72241
2017-11-29 19:06:07 STOPPING ENGINE 1 52241
2017-11-29 19:06:07 STARTING ENGINE 1 52241
2017-11-29 19:06:08 STOPPING ENGINE 1 52241
2017-11-29 19:06:08 STARTING ENGINE 1 52241
2017-11-29 19:13:31 TAXI TO THE RWY 132241
2017-11-29 19:13:31 TAXING WITH TAXI LIGHTS OFF132241
2017-11-29 19:13:59 ROLLING FOR TAKE OFF392241
2017-11-29 19:14:10 TAKE OFF772245
2017-11-29 19:14:39 SIM PAUSED832638
2017-11-29 19:14:48 SIM UNPAUSED832638
2017-11-29 19:15:06 LIGHTS OFF BELOW 10000 ft892864
2017-11-29 19:15:50 CRUISE913101
2017-11-29 19:16:30 DESCEND812922
2017-11-29 19:17:30 CRUISE792841
2017-11-29 19:18:20 CLIMBING882996
2017-11-29 19:19:40 CRUISE963072
2017-11-29 19:20:20 DESCEND932956
2017-11-29 19:21:52 SIM PAUSED833018
2017-11-29 19:22:10 CRUISE833018
2017-11-29 19:22:20 SIM UNPAUSED833018
2017-11-29 19:25:40 CLIMBING903013
2017-11-29 19:27:00 CRUISE892976
2017-11-29 19:33:00 DESCEND942871
2017-11-29 19:34:00 CLIMBING792924
2017-11-29 19:34:50 CRUISE903080
2017-11-29 19:35:20 DESCEND932853
2017-11-29 19:36:10 CRUISE762648
2017-11-29 19:36:12 FLAPS EXTENSION 33 % 792643
2017-11-29 19:36:24 FLAPS EXTENSION 67 % 692641
2017-11-29 19:37:10 DESCEND822423
2017-11-29 19:37:34 LANDING652244
2017-11-29 19:37:54 FLAPS EXTENSION 33 % 702269
2017-11-29 19:37:57 TAKE OFF782295
2017-11-29 19:38:02 FLAPS EXTENSION 0 % 732347
2017-11-29 19:38:18 GEAR UP812464
2017-11-29 19:39:30 DESCEND903203
2017-11-29 19:40:10 CRUISE903075
2017-11-29 19:40:40 DESCEND842951
2017-11-29 19:41:07 FLAPS EXTENSION 33 % 842914
2017-11-29 19:41:30 CLIMBING952938
2017-11-29 19:43:00 DESCEND912837
2017-11-29 19:43:52 FLAPS EXTENSION 67 % 882452
2017-11-29 19:43:56 GEAR DOWN852419
2017-11-29 19:44:17 LANDING722244
2017-11-29 19:44:28 FLAPS EXTENSION 33 % 502241
2017-11-29 19:44:29 FLAPS EXTENSION 0 % 512241
2017-11-29 19:44:41 GEAR UP802269
2017-11-29 19:44:45 TAKE OFF862300
2017-11-29 19:47:30 CRUISE912976
2017-11-29 19:48:32 FLAPS EXTENSION 33 % 1033043
2017-11-29 19:49:00 DESCEND852841
2017-11-29 19:49:12 STOPPING ENGINE 1 912681
2017-11-29 19:49:14 STARTING ENGINE 1 892655
2017-11-29 19:49:55 GEAR DOWN802580
2017-11-29 19:51:00 CRUISE752259
2017-11-29 19:51:03 LANDING752244
2017-11-29 19:51:22 FLAPS EXTENSION 0 % 332241
2017-11-29 19:51:28 TAXI TO THE GATE202242
2017-11-29 19:54:53 BEACON LIGHT OFF & ENGINE ON02238
2017-11-29 19:56:06 STOPPING ENGINE 1 02238
 ACARS DATA
DATE IASGSALTITUDEFUEL CONSUMED OATFLIGHT STATUS
2017-11-29 18:10:02002240010BOARDING
2017-11-29 18:11:02002240010BOARDING
2017-11-29 18:12:020022401110BOARDING
2017-11-29 18:13:020022401110BOARDING
2017-11-29 18:14:020022401110BOARDING
2017-11-29 18:15:020022401110BOARDING
2017-11-29 18:16:020022401110BOARDING
2017-11-29 18:17:020022401110BOARDING
2017-11-29 18:18:020022401110BOARDING
2017-11-29 18:19:020022401110BOARDING
2017-11-29 18:20:020022401110BOARDING
2017-11-29 18:21:020022401110BOARDING
2017-11-29 18:22:020022401110BOARDING
2017-11-29 18:23:020022401110BOARDING
2017-11-29 18:24:020022401110BOARDING
2017-11-29 18:25:020022401110BOARDING
2017-11-29 18:26:02002240119BOARDING
2017-11-29 18:27:02002240119BOARDING
2017-11-29 18:28:02002240119BOARDING
2017-11-29 18:29:02002240119BOARDING
2017-11-29 18:30:02002240119BOARDING
2017-11-29 18:31:0200224079BOARDING
2017-11-29 18:32:0200224079BOARDING
2017-11-29 18:33:0200224079BOARDING
2017-11-29 18:34:0200224079BOARDING
2017-11-29 18:35:0200224079BOARDING
2017-11-29 18:36:0200224079BOARDING
2017-11-29 18:37:0200224079BOARDING
2017-11-29 18:38:0200224079BOARDING
2017-11-29 18:39:0200224079BOARDING
2017-11-29 18:40:0200224079BOARDING
2017-11-29 18:41:0200224079BOARDING
2017-11-29 18:42:0200224089BOARDING
2017-11-29 18:43:0200224089BOARDING
2017-11-29 18:44:0200224089BOARDING
2017-11-29 18:45:0200224089BOARDING
2017-11-29 18:46:0200224089BOARDING
2017-11-29 18:47:0200224089BOARDING
2017-11-29 18:48:0200224089BOARDING
2017-11-29 18:49:0200224089BOARDING
2017-11-29 18:50:0200224089BOARDING
2017-11-29 18:51:0200224099BOARDING
2017-11-29 18:52:0200224099BOARDING
2017-11-29 18:53:0200224099BOARDING
2017-11-29 18:54:0200224099BOARDING
2017-11-29 18:55:0200224099BOARDING
2017-11-29 18:56:0200224099BOARDING
2017-11-29 18:57:0202224099BOARDING
2017-11-29 18:58:0270224099BOARDING
2017-11-29 18:59:0230224099BOARDING
2017-11-29 19:00:0260224099BOARDING
2017-11-29 19:01:02302240109BOARDING
2017-11-29 19:02:02502240109BOARDING
2017-11-29 19:03:02602240109BOARDING
2017-11-29 19:04:02702240109BOARDING
2017-11-29 19:05:02702240109BOARDING
2017-11-29 19:06:02602240109BOARDING
2017-11-29 19:07:02702240109BOARDING
2017-11-29 19:08:02602240119BOARDING
2017-11-29 19:09:02602240119BOARDING
2017-11-29 19:10:02502240119BOARDING
2017-11-29 19:11:02702240119BOARDING
2017-11-29 19:12:02602240119BOARDING
2017-11-29 19:13:02702240119BOARDING
2017-11-29 19:14:0248552241129TAXI TO THE RWY
2017-11-29 19:15:0290932790128CLIMBING
2017-11-29 19:16:0283943068138CRUISE
2017-11-29 19:17:0285842827138DESCEND
2017-11-29 19:18:0286902947148CRUISE
2017-11-29 19:19:0289963121148CLIMBING
2017-11-29 19:20:0294953018158CRUISE
2017-11-29 19:21:02921032866158DESCEND
2017-11-29 19:22:0283943017168DESCEND
2017-11-29 19:23:02901012981168CRUISE
2017-11-29 19:24:02911013027178CRUISE
2017-11-29 19:25:02901023015178CRUISE
2017-11-29 19:26:0291883000188CLIMBING
2017-11-29 19:27:0291912972187CRUISE
2017-11-29 19:28:0290932969187CRUISE
2017-11-29 19:29:0291893001197CRUISE
2017-11-29 19:30:0290883009197CRUISE
2017-11-29 19:31:0292922996207CRUISE
2017-11-29 19:32:0292922995207CRUISE
2017-11-29 19:33:0293912864217DESCEND
2017-11-29 19:34:0281802938217CLIMBING
2017-11-29 19:35:0293943004227CRUISE
2017-11-29 19:36:0282872642228DESCEND
2017-11-29 19:37:0279822493228CRUISE
2017-11-29 19:38:0273762339238CLIMBING
2017-11-29 19:39:0290993124247CLIMBING
2017-11-29 19:40:0289923086247DESCEND
2017-11-29 19:41:0282852931247DESCEND
2017-11-29 19:42:0292913067257CLIMBING
2017-11-29 19:43:0290972826257DESCEND
2017-11-29 19:44:0277832350258DESCEND
2017-11-29 19:45:0295992522268CLIMBING
2017-11-29 19:46:02911013221267CLIMBING
2017-11-29 19:47:0291992960277CLIMBING
2017-11-29 19:48:0299992969277CRUISE
2017-11-29 19:49:0285862813277DESCEND
2017-11-29 19:50:0282872586288DESCEND
2017-11-29 19:51:0278762254288CRUISE
2017-11-29 19:52:02182241289TAXI TO THE GATE
2017-11-29 19:53:02752238289TAXI TO THE GATE
2017-11-29 19:54:02002238289TAXI TO THE GATE
2017-11-29 19:55:02002238289TAXI TO THE GATE
2017-11-29 19:56:02002238299TAXI TO THE GATE
2017-11-29 19:57:02002238299TAXI TO THE GATE
2017-11-29 19:58:02002238299TAXI TO THE GATE
2017-11-29 19:59:02002238299TAXI TO THE GATE


Powered by Virtual Airlines Manager [v2.6.2]